<?xml version="1.0" encoding="UTF-8" standalone="no" ?>
<gpx xmlns="http://www.topografix.com/GPX/1/1" xmlns:xsi="http://www.w3.org/2001/XMLSchema-instance" xsi:schemaLocation="http://www.topografix.com/GPX/1/1 http://www.topografix.com/GPX/1/1/gpx.xsd" version="1.1" creator="VisuGPX - https://www.visugpx.com">
  <metadata>
    <name>10463060-Céreste / Villemus</name>
  </metadata>
  <trk>
    <name><![CDATA[10463060-Céreste / Villemus]]></name>
    <trkseg>
      <trkpt lat="43.85656" lon="5.58418">
        <ele>413</ele>
        <time>2019-09-04T19:02:51Z</time>
      </trkpt>
      <trkpt lat="43.85667" lon="5.58535">
        <ele>408</ele>
        <time>2019-09-04T19:03:11Z</time>
      </trkpt>
      <trkpt lat="43.85649" lon="5.58601">
        <ele>406</ele>
        <time>2019-09-04T19:03:23Z</time>
      </trkpt>
      <trkpt lat="43.85611" lon="5.58693">
        <ele>403</ele>
        <time>2019-09-04T19:03:41Z</time>
      </trkpt>
      <trkpt lat="43.85607" lon="5.58716">
        <ele>403</ele>
        <time>2019-09-04T19:03:45Z</time>
      </trkpt>
      <trkpt lat="43.85607" lon="5.58767">
        <ele>402</ele>
        <time>2019-09-04T19:03:53Z</time>
      </trkpt>
      <trkpt lat="43.8561" lon="5.58779">
        <ele>401</ele>
        <time>2019-09-04T19:03:55Z</time>
      </trkpt>
      <trkpt lat="43.85658" lon="5.58784">
        <ele>399</ele>
        <time>2019-09-04T19:04:07Z</time>
      </trkpt>
      <trkpt lat="43.85678" lon="5.58794">
        <ele>397</ele>
        <time>2019-09-04T19:04:12Z</time>
      </trkpt>
      <trkpt lat="43.85712" lon="5.58822">
        <ele>391</ele>
        <time>2019-09-04T19:04:21Z</time>
      </trkpt>
      <trkpt lat="43.85725" lon="5.58826">
        <ele>389</ele>
        <time>2019-09-04T19:04:24Z</time>
      </trkpt>
      <trkpt lat="43.85727" lon="5.58845">
        <ele>389</ele>
        <time>2019-09-04T19:04:27Z</time>
      </trkpt>
      <trkpt lat="43.85751" lon="5.58899">
        <ele>387</ele>
        <time>2019-09-04T19:04:38Z</time>
      </trkpt>
      <trkpt lat="43.8576" lon="5.58911">
        <ele>386</ele>
        <time>2019-09-04T19:04:41Z</time>
      </trkpt>
      <trkpt lat="43.85781" lon="5.5893">
        <ele>381</ele>
        <time>2019-09-04T19:04:47Z</time>
      </trkpt>
      <trkpt lat="43.85757" lon="5.58871">
        <ele>385</ele>
        <time>2019-09-04T19:04:58Z</time>
      </trkpt>
      <trkpt lat="43.85753" lon="5.58854">
        <ele>385</ele>
        <time>2019-09-04T19:05:01Z</time>
      </trkpt>
      <trkpt lat="43.85754" lon="5.58833">
        <ele>384</ele>
        <time>2019-09-04T19:05:05Z</time>
      </trkpt>
      <trkpt lat="43.85758" lon="5.58821">
        <ele>384</ele>
        <time>2019-09-04T19:05:07Z</time>
      </trkpt>
      <trkpt lat="43.85781" lon="5.58781">
        <ele>382</ele>
        <time>2019-09-04T19:05:15Z</time>
      </trkpt>
      <trkpt lat="43.85825" lon="5.58725">
        <ele>377</ele>
        <time>2019-09-04T19:05:29Z</time>
      </trkpt>
      <trkpt lat="43.85864" lon="5.58693">
        <ele>378</ele>
        <time>2019-09-04T19:05:40Z</time>
      </trkpt>
      <trkpt lat="43.85922" lon="5.58638">
        <ele>375</ele>
        <time>2019-09-04T19:05:56Z</time>
      </trkpt>
      <trkpt lat="43.85973" lon="5.58607">
        <ele>374</ele>
        <time>2019-09-04T19:06:09Z</time>
      </trkpt>
      <trkpt lat="43.85985" lon="5.58592">
        <ele>371</ele>
        <time>2019-09-04T19:06:13Z</time>
      </trkpt>
      <trkpt lat="43.86009" lon="5.58521">
        <ele>372</ele>
        <time>2019-09-04T19:06:26Z</time>
      </trkpt>
      <trkpt lat="43.86014" lon="5.58487">
        <ele>373</ele>
        <time>2019-09-04T19:06:32Z</time>
      </trkpt>
      <trkpt lat="43.86034" lon="5.58472">
        <ele>373</ele>
        <time>2019-09-04T19:06:37Z</time>
      </trkpt>
      <trkpt lat="43.8604" lon="5.58455">
        <ele>373</ele>
        <time>2019-09-04T19:06:41Z</time>
      </trkpt>
      <trkpt lat="43.86051" lon="5.58396">
        <ele>371</ele>
        <time>2019-09-04T19:06:51Z</time>
      </trkpt>
      <trkpt lat="43.86058" lon="5.58379">
        <ele>370</ele>
        <time>2019-09-04T19:06:54Z</time>
      </trkpt>
      <trkpt lat="43.86078" lon="5.58351">
        <ele>366</ele>
        <time>2019-09-04T19:07:01Z</time>
      </trkpt>
      <trkpt lat="43.86085" lon="5.58333">
        <ele>364</ele>
        <time>2019-09-04T19:07:04Z</time>
      </trkpt>
      <trkpt lat="43.86107" lon="5.58256">
        <ele>369</ele>
        <time>2019-09-04T19:07:18Z</time>
      </trkpt>
      <trkpt lat="43.86114" lon="5.58212">
        <ele>370</ele>
        <time>2019-09-04T19:07:26Z</time>
      </trkpt>
      <trkpt lat="43.86113" lon="5.58186">
        <ele>369</ele>
        <time>2019-09-04T19:07:30Z</time>
      </trkpt>
      <trkpt lat="43.86131" lon="5.58149">
        <ele>372</ele>
        <time>2019-09-04T19:07:38Z</time>
      </trkpt>
      <trkpt lat="43.86152" lon="5.5809">
        <ele>373</ele>
        <time>2019-09-04T19:07:49Z</time>
      </trkpt>
      <trkpt lat="43.86174" lon="5.58001">
        <ele>373</ele>
        <time>2019-09-04T19:08:05Z</time>
      </trkpt>
      <trkpt lat="43.86187" lon="5.57961">
        <ele>378</ele>
        <time>2019-09-04T19:08:12Z</time>
      </trkpt>
      <trkpt lat="43.86184" lon="5.57933">
        <ele>375</ele>
        <time>2019-09-04T19:08:17Z</time>
      </trkpt>
      <trkpt lat="43.86196" lon="5.57865">
        <ele>376</ele>
        <time>2019-09-04T19:08:29Z</time>
      </trkpt>
      <trkpt lat="43.86203" lon="5.5785">
        <ele>378</ele>
        <time>2019-09-04T19:08:32Z</time>
      </trkpt>
      <trkpt lat="43.86215" lon="5.57793">
        <ele>376</ele>
        <time>2019-09-04T19:08:42Z</time>
      </trkpt>
      <trkpt lat="43.8624" lon="5.57698">
        <ele>368</ele>
        <time>2019-09-04T19:08:59Z</time>
      </trkpt>
      <trkpt lat="43.86286" lon="5.57541">
        <ele>362</ele>
        <time>2019-09-04T19:09:27Z</time>
      </trkpt>
      <trkpt lat="43.86294" lon="5.57541">
        <ele>363</ele>
        <time>2019-09-04T19:09:29Z</time>
      </trkpt>
      <trkpt lat="43.86307" lon="5.5753">
        <ele>364</ele>
        <time>2019-09-04T19:09:33Z</time>
      </trkpt>
      <trkpt lat="43.86343" lon="5.57527">
        <ele>368</ele>
        <time>2019-09-04T19:09:41Z</time>
      </trkpt>
      <trkpt lat="43.8637" lon="5.57535">
        <ele>372</ele>
        <time>2019-09-04T19:09:47Z</time>
      </trkpt>
      <trkpt lat="43.86413" lon="5.57564">
        <ele>383</ele>
        <time>2019-09-04T19:09:59Z</time>
      </trkpt>
      <trkpt lat="43.86438" lon="5.57584">
        <ele>388</ele>
        <time>2019-09-04T19:10:05Z</time>
      </trkpt>
      <trkpt lat="43.86464" lon="5.57611">
        <ele>396</ele>
        <time>2019-09-04T19:10:13Z</time>
      </trkpt>
      <trkpt lat="43.86522" lon="5.57653">
        <ele>403</ele>
        <time>2019-09-04T19:10:28Z</time>
      </trkpt>
      <trkpt lat="43.8661" lon="5.57706">
        <ele>409</ele>
        <time>2019-09-04T19:10:51Z</time>
      </trkpt>
      <trkpt lat="43.86656" lon="5.57725">
        <ele>409</ele>
        <time>2019-09-04T19:11:02Z</time>
      </trkpt>
      <trkpt lat="43.86694" lon="5.57731">
        <ele>407</ele>
        <time>2019-09-04T19:11:11Z</time>
      </trkpt>
      <trkpt lat="43.86745" lon="5.57743">
        <ele>404</ele>
        <time>2019-09-04T19:11:23Z</time>
      </trkpt>
      <trkpt lat="43.86804" lon="5.57772">
        <ele>408</ele>
        <time>2019-09-04T19:11:37Z</time>
      </trkpt>
      <trkpt lat="43.86848" lon="5.57807">
        <ele>411</ele>
        <time>2019-09-04T19:11:49Z</time>
      </trkpt>
      <trkpt lat="43.86872" lon="5.57831">
        <ele>411</ele>
        <time>2019-09-04T19:11:56Z</time>
      </trkpt>
      <trkpt lat="43.86894" lon="5.57885">
        <ele>419</ele>
        <time>2019-09-04T19:12:07Z</time>
      </trkpt>
      <trkpt lat="43.86942" lon="5.57925">
        <ele>415</ele>
        <time>2019-09-04T19:12:20Z</time>
      </trkpt>
      <trkpt lat="43.86987" lon="5.57978">
        <ele>416</ele>
        <time>2019-09-04T19:12:33Z</time>
      </trkpt>
      <trkpt lat="43.87039" lon="5.5808">
        <ele>427</ele>
        <time>2019-09-04T19:12:55Z</time>
      </trkpt>
      <trkpt lat="43.87052" lon="5.58092">
        <ele>426</ele>
        <time>2019-09-04T19:12:58Z</time>
      </trkpt>
      <trkpt lat="43.87084" lon="5.58153">
        <ele>430</ele>
        <time>2019-09-04T19:13:11Z</time>
      </trkpt>
      <trkpt lat="43.87091" lon="5.5816">
        <ele>430</ele>
        <time>2019-09-04T19:13:13Z</time>
      </trkpt>
      <trkpt lat="43.87117" lon="5.5817">
        <ele>427</ele>
        <time>2019-09-04T19:13:19Z</time>
      </trkpt>
      <trkpt lat="43.87124" lon="5.58177">
        <ele>428</ele>
        <time>2019-09-04T19:13:21Z</time>
      </trkpt>
      <trkpt lat="43.8714" lon="5.58206">
        <ele>432</ele>
        <time>2019-09-04T19:13:27Z</time>
      </trkpt>
      <trkpt lat="43.87153" lon="5.58242">
        <ele>436</ele>
        <time>2019-09-04T19:13:34Z</time>
      </trkpt>
      <trkpt lat="43.87165" lon="5.58263">
        <ele>438</ele>
        <time>2019-09-04T19:13:39Z</time>
      </trkpt>
      <trkpt lat="43.87187" lon="5.58293">
        <ele>442</ele>
        <time>2019-09-04T19:13:46Z</time>
      </trkpt>
      <trkpt lat="43.87207" lon="5.58313">
        <ele>443</ele>
        <time>2019-09-04T19:13:52Z</time>
      </trkpt>
      <trkpt lat="43.87237" lon="5.58352">
        <ele>443</ele>
        <time>2019-09-04T19:14:01Z</time>
      </trkpt>
      <trkpt lat="43.87287" lon="5.58442">
        <ele>448</ele>
        <time>2019-09-04T19:14:20Z</time>
      </trkpt>
      <trkpt lat="43.8733" lon="5.58476">
        <ele>441</ele>
        <time>2019-09-04T19:14:32Z</time>
      </trkpt>
      <trkpt lat="43.87343" lon="5.58498">
        <ele>442</ele>
        <time>2019-09-04T19:14:37Z</time>
      </trkpt>
      <trkpt lat="43.87345" lon="5.58519">
        <ele>447</ele>
        <time>2019-09-04T19:14:40Z</time>
      </trkpt>
      <trkpt lat="43.87359" lon="5.58558">
        <ele>453</ele>
        <time>2019-09-04T19:14:48Z</time>
      </trkpt>
      <trkpt lat="43.87386" lon="5.58574">
        <ele>448</ele>
        <time>2019-09-04T19:14:54Z</time>
      </trkpt>
      <trkpt lat="43.87405" lon="5.58589">
        <ele>446</ele>
        <time>2019-09-04T19:15:00Z</time>
      </trkpt>
      <trkpt lat="43.8741" lon="5.58601">
        <ele>448</ele>
        <time>2019-09-04T19:15:02Z</time>
      </trkpt>
      <trkpt lat="43.87441" lon="5.58718">
        <ele>467</ele>
        <time>2019-09-04T19:15:23Z</time>
      </trkpt>
      <trkpt lat="43.87448" lon="5.58728">
        <ele>467</ele>
        <time>2019-09-04T19:15:25Z</time>
      </trkpt>
      <trkpt lat="43.8743" lon="5.58769">
        <ele>482</ele>
        <time>2019-09-04T19:15:33Z</time>
      </trkpt>
      <trkpt lat="43.87392" lon="5.58876">
        <ele>510</ele>
        <time>2019-09-04T19:15:53Z</time>
      </trkpt>
      <trkpt lat="43.8739" lon="5.58927">
        <ele>514</ele>
        <time>2019-09-04T19:16:02Z</time>
      </trkpt>
      <trkpt lat="43.87393" lon="5.58949">
        <ele>514</ele>
        <time>2019-09-04T19:16:06Z</time>
      </trkpt>
      <trkpt lat="43.87398" lon="5.58969">
        <ele>515</ele>
        <time>2019-09-04T19:16:09Z</time>
      </trkpt>
      <trkpt lat="43.8742" lon="5.59021">
        <ele>515</ele>
        <time>2019-09-04T19:16:19Z</time>
      </trkpt>
      <trkpt lat="43.87422" lon="5.59038">
        <ele>515</ele>
        <time>2019-09-04T19:16:22Z</time>
      </trkpt>
      <trkpt lat="43.87416" lon="5.5905">
        <ele>515</ele>
        <time>2019-09-04T19:16:25Z</time>
      </trkpt>
      <trkpt lat="43.87404" lon="5.59058">
        <ele>514</ele>
        <time>2019-09-04T19:16:28Z</time>
      </trkpt>
      <trkpt lat="43.87389" lon="5.59065">
        <ele>512</ele>
        <time>2019-09-04T19:16:32Z</time>
      </trkpt>
      <trkpt lat="43.8735" lon="5.59071">
        <ele>509</ele>
        <time>2019-09-04T19:16:41Z</time>
      </trkpt>
      <trkpt lat="43.87343" lon="5.59078">
        <ele>509</ele>
        <time>2019-09-04T19:16:43Z</time>
      </trkpt>
      <trkpt lat="43.87327" lon="5.59101">
        <ele>506</ele>
        <time>2019-09-04T19:16:48Z</time>
      </trkpt>
      <trkpt lat="43.87319" lon="5.59123">
        <ele>504</ele>
        <time>2019-09-04T19:16:52Z</time>
      </trkpt>
      <trkpt lat="43.87306" lon="5.59176">
        <ele>501</ele>
        <time>2019-09-04T19:17:02Z</time>
      </trkpt>
      <trkpt lat="43.87295" lon="5.59184">
        <ele>499</ele>
        <time>2019-09-04T19:17:05Z</time>
      </trkpt>
      <trkpt lat="43.87289" lon="5.59197">
        <ele>499</ele>
        <time>2019-09-04T19:17:07Z</time>
      </trkpt>
      <trkpt lat="43.87278" lon="5.59262">
        <ele>497</ele>
        <time>2019-09-04T19:17:18Z</time>
      </trkpt>
      <trkpt lat="43.8728" lon="5.59303">
        <ele>497</ele>
        <time>2019-09-04T19:17:25Z</time>
      </trkpt>
      <trkpt lat="43.87277" lon="5.59365">
        <ele>497</ele>
        <time>2019-09-04T19:17:36Z</time>
      </trkpt>
      <trkpt lat="43.87276" lon="5.59472">
        <ele>496</ele>
        <time>2019-09-04T19:17:54Z</time>
      </trkpt>
      <trkpt lat="43.87283" lon="5.59545">
        <ele>496</ele>
        <time>2019-09-04T19:18:06Z</time>
      </trkpt>
      <trkpt lat="43.8729" lon="5.59525">
        <ele>497</ele>
        <time>2019-09-04T19:18:10Z</time>
      </trkpt>
      <trkpt lat="43.87296" lon="5.5952">
        <ele>498</ele>
        <time>2019-09-04T19:18:12Z</time>
      </trkpt>
      <trkpt lat="43.87304" lon="5.5952">
        <ele>499</ele>
        <time>2019-09-04T19:18:14Z</time>
      </trkpt>
      <trkpt lat="43.87318" lon="5.59528">
        <ele>500</ele>
        <time>2019-09-04T19:18:17Z</time>
      </trkpt>
      <trkpt lat="43.87326" lon="5.59528">
        <ele>501</ele>
        <time>2019-09-04T19:18:19Z</time>
      </trkpt>
      <trkpt lat="43.87333" lon="5.59525">
        <ele>501</ele>
        <time>2019-09-04T19:18:21Z</time>
      </trkpt>
      <trkpt lat="43.87343" lon="5.59506">
        <ele>503</ele>
        <time>2019-09-04T19:18:25Z</time>
      </trkpt>
      <trkpt lat="43.87352" lon="5.59496">
        <ele>504</ele>
        <time>2019-09-04T19:18:27Z</time>
      </trkpt>
      <trkpt lat="43.87367" lon="5.59488">
        <ele>505</ele>
        <time>2019-09-04T19:18:31Z</time>
      </trkpt>
      <trkpt lat="43.87391" lon="5.59465">
        <ele>508</ele>
        <time>2019-09-04T19:18:38Z</time>
      </trkpt>
      <trkpt lat="43.87411" lon="5.59452">
        <ele>510</ele>
        <time>2019-09-04T19:18:43Z</time>
      </trkpt>
      <trkpt lat="43.87423" lon="5.59439">
        <ele>511</ele>
        <time>2019-09-04T19:18:47Z</time>
      </trkpt>
      <trkpt lat="43.87429" lon="5.59425">
        <ele>512</ele>
        <time>2019-09-04T19:18:49Z</time>
      </trkpt>
      <trkpt lat="43.87435" lon="5.5942">
        <ele>512</ele>
        <time>2019-09-04T19:18:51Z</time>
      </trkpt>
      <trkpt lat="43.87463" lon="5.59418">
        <ele>512</ele>
        <time>2019-09-04T19:18:57Z</time>
      </trkpt>
      <trkpt lat="43.87481" lon="5.59414">
        <ele>512</ele>
        <time>2019-09-04T19:19:02Z</time>
      </trkpt>
      <trkpt lat="43.87509" lon="5.59395">
        <ele>512</ele>
        <time>2019-09-04T19:19:09Z</time>
      </trkpt>
      <trkpt lat="43.87538" lon="5.59362">
        <ele>513</ele>
        <time>2019-09-04T19:19:18Z</time>
      </trkpt>
      <trkpt lat="43.87562" lon="5.59339">
        <ele>515</ele>
        <time>2019-09-04T19:19:25Z</time>
      </trkpt>
      <trkpt lat="43.87567" lon="5.59329">
        <ele>515</ele>
        <time>2019-09-04T19:19:27Z</time>
      </trkpt>
      <trkpt lat="43.87596" lon="5.59299">
        <ele>516</ele>
        <time>2019-09-04T19:19:35Z</time>
      </trkpt>
      <trkpt lat="43.8761" lon="5.59277">
        <ele>516</ele>
        <time>2019-09-04T19:19:40Z</time>
      </trkpt>
      <trkpt lat="43.87616" lon="5.59272">
        <ele>515</ele>
        <time>2019-09-04T19:19:42Z</time>
      </trkpt>
      <trkpt lat="43.87624" lon="5.5927">
        <ele>515</ele>
        <time>2019-09-04T19:19:44Z</time>
      </trkpt>
      <trkpt lat="43.87638" lon="5.59272">
        <ele>515</ele>
        <time>2019-09-04T19:19:47Z</time>
      </trkpt>
      <trkpt lat="43.87646" lon="5.59277">
        <ele>516</ele>
        <time>2019-09-04T19:19:49Z</time>
      </trkpt>
      <trkpt lat="43.8769" lon="5.59351">
        <ele>523</ele>
        <time>2019-09-04T19:20:05Z</time>
      </trkpt>
      <trkpt lat="43.87712" lon="5.59374">
        <ele>524</ele>
        <time>2019-09-04T19:20:11Z</time>
      </trkpt>
      <trkpt lat="43.87729" lon="5.59403">
        <ele>528</ele>
        <time>2019-09-04T19:20:18Z</time>
      </trkpt>
      <trkpt lat="43.87736" lon="5.5941">
        <ele>530</ele>
        <time>2019-09-04T19:20:20Z</time>
      </trkpt>
      <trkpt lat="43.87743" lon="5.59412">
        <ele>531</ele>
        <time>2019-09-04T19:20:21Z</time>
      </trkpt>
      <trkpt lat="43.87759" lon="5.59411">
        <ele>530</ele>
        <time>2019-09-04T19:20:25Z</time>
      </trkpt>
      <trkpt lat="43.8777" lon="5.59415">
        <ele>529</ele>
        <time>2019-09-04T19:20:28Z</time>
      </trkpt>
      <trkpt lat="43.87777" lon="5.59422">
        <ele>529</ele>
        <time>2019-09-04T19:20:30Z</time>
      </trkpt>
      <trkpt lat="43.87794" lon="5.5943">
        <ele>528</ele>
        <time>2019-09-04T19:20:34Z</time>
      </trkpt>
      <trkpt lat="43.87811" lon="5.59451">
        <ele>530</ele>
        <time>2019-09-04T19:20:39Z</time>
      </trkpt>
      <trkpt lat="43.87819" lon="5.59469">
        <ele>533</ele>
        <time>2019-09-04T19:20:43Z</time>
      </trkpt>
      <trkpt lat="43.87844" lon="5.59507">
        <ele>538</ele>
        <time>2019-09-04T19:20:52Z</time>
      </trkpt>
      <trkpt lat="43.87867" lon="5.59563">
        <ele>540</ele>
        <time>2019-09-04T19:21:02Z</time>
      </trkpt>
      <trkpt lat="43.87876" lon="5.59577">
        <ele>541</ele>
        <time>2019-09-04T19:21:06Z</time>
      </trkpt>
      <trkpt lat="43.87877" lon="5.59597">
        <ele>543</ele>
        <time>2019-09-04T19:21:09Z</time>
      </trkpt>
      <trkpt lat="43.87882" lon="5.59615">
        <ele>544</ele>
        <time>2019-09-04T19:21:12Z</time>
      </trkpt>
      <trkpt lat="43.87891" lon="5.59629">
        <ele>545</ele>
        <time>2019-09-04T19:21:15Z</time>
      </trkpt>
      <trkpt lat="43.87896" lon="5.59661">
        <ele>548</ele>
        <time>2019-09-04T19:21:21Z</time>
      </trkpt>
      <trkpt lat="43.879" lon="5.59673">
        <ele>549</ele>
        <time>2019-09-04T19:21:23Z</time>
      </trkpt>
      <trkpt lat="43.87909" lon="5.59692">
        <ele>551</ele>
        <time>2019-09-04T19:21:27Z</time>
      </trkpt>
      <trkpt lat="43.87934" lon="5.59731">
        <ele>552</ele>
        <time>2019-09-04T19:21:36Z</time>
      </trkpt>
      <trkpt lat="43.87942" lon="5.5975">
        <ele>553</ele>
        <time>2019-09-04T19:21:39Z</time>
      </trkpt>
      <trkpt lat="43.87948" lon="5.59784">
        <ele>555</ele>
        <time>2019-09-04T19:21:45Z</time>
      </trkpt>
      <trkpt lat="43.87964" lon="5.59816">
        <ele>557</ele>
        <time>2019-09-04T19:21:52Z</time>
      </trkpt>
      <trkpt lat="43.87975" lon="5.59851">
        <ele>561</ele>
        <time>2019-09-04T19:21:58Z</time>
      </trkpt>
      <trkpt lat="43.88015" lon="5.59936">
        <ele>567</ele>
        <time>2019-09-04T19:22:15Z</time>
      </trkpt>
      <trkpt lat="43.88031" lon="5.59985">
        <ele>569</ele>
        <time>2019-09-04T19:22:24Z</time>
      </trkpt>
      <trkpt lat="43.88036" lon="5.59989">
        <ele>569</ele>
        <time>2019-09-04T19:22:26Z</time>
      </trkpt>
      <trkpt lat="43.88045" lon="5.59987">
        <ele>569</ele>
        <time>2019-09-04T19:22:28Z</time>
      </trkpt>
      <trkpt lat="43.8807" lon="5.60014">
        <ele>571</ele>
        <time>2019-09-04T19:22:35Z</time>
      </trkpt>
      <trkpt lat="43.88082" lon="5.60046">
        <ele>573</ele>
        <time>2019-09-04T19:22:41Z</time>
      </trkpt>
      <trkpt lat="43.88097" lon="5.60117">
        <ele>576</ele>
        <time>2019-09-04T19:22:54Z</time>
      </trkpt>
      <trkpt lat="43.88116" lon="5.60155">
        <ele>575</ele>
        <time>2019-09-04T19:23:02Z</time>
      </trkpt>
      <trkpt lat="43.88125" lon="5.60181">
        <ele>575</ele>
        <time>2019-09-04T19:23:06Z</time>
      </trkpt>
      <trkpt lat="43.88134" lon="5.60315">
        <ele>576</ele>
        <time>2019-09-04T19:23:29Z</time>
      </trkpt>
      <trkpt lat="43.88136" lon="5.60331">
        <ele>576</ele>
        <time>2019-09-04T19:23:32Z</time>
      </trkpt>
      <trkpt lat="43.88143" lon="5.60344">
        <ele>577</ele>
        <time>2019-09-04T19:23:35Z</time>
      </trkpt>
      <trkpt lat="43.8815" lon="5.60378">
        <ele>578</ele>
        <time>2019-09-04T19:23:41Z</time>
      </trkpt>
      <trkpt lat="43.88162" lon="5.60475">
        <ele>584</ele>
        <time>2019-09-04T19:23:57Z</time>
      </trkpt>
      <trkpt lat="43.88179" lon="5.60563">
        <ele>584</ele>
        <time>2019-09-04T19:24:12Z</time>
      </trkpt>
      <trkpt lat="43.88181" lon="5.60589">
        <ele>583</ele>
        <time>2019-09-04T19:24:17Z</time>
      </trkpt>
      <trkpt lat="43.88179" lon="5.60618">
        <ele>582</ele>
        <time>2019-09-04T19:24:22Z</time>
      </trkpt>
      <trkpt lat="43.88166" lon="5.60657">
        <ele>583</ele>
        <time>2019-09-04T19:24:29Z</time>
      </trkpt>
      <trkpt lat="43.88157" lon="5.60676">
        <ele>582</ele>
        <time>2019-09-04T19:24:33Z</time>
      </trkpt>
      <trkpt lat="43.88143" lon="5.60687">
        <ele>580</ele>
        <time>2019-09-04T19:24:37Z</time>
      </trkpt>
      <trkpt lat="43.88114" lon="5.60753">
        <ele>576</ele>
        <time>2019-09-04T19:24:50Z</time>
      </trkpt>
      <trkpt lat="43.88082" lon="5.60773">
        <ele>578</ele>
        <time>2019-09-04T19:24:58Z</time>
      </trkpt>
      <trkpt lat="43.88071" lon="5.60799">
        <ele>576</ele>
        <time>2019-09-04T19:25:03Z</time>
      </trkpt>
      <trkpt lat="43.88054" lon="5.60817">
        <ele>574</ele>
        <time>2019-09-04T19:25:08Z</time>
      </trkpt>
      <trkpt lat="43.88037" lon="5.60847">
        <ele>571</ele>
        <time>2019-09-04T19:25:14Z</time>
      </trkpt>
      <trkpt lat="43.88022" lon="5.60862">
        <ele>570</ele>
        <time>2019-09-04T19:25:19Z</time>
      </trkpt>
      <trkpt lat="43.88027" lon="5.60877">
        <ele>569</ele>
        <time>2019-09-04T19:25:21Z</time>
      </trkpt>
      <trkpt lat="43.88038" lon="5.60891">
        <ele>567</ele>
        <time>2019-09-04T19:25:25Z</time>
      </trkpt>
      <trkpt lat="43.88058" lon="5.60909">
        <ele>564</ele>
        <time>2019-09-04T19:25:30Z</time>
      </trkpt>
      <trkpt lat="43.88074" lon="5.6092">
        <ele>561</ele>
        <time>2019-09-04T19:25:35Z</time>
      </trkpt>
      <trkpt lat="43.88091" lon="5.60928">
        <ele>557</ele>
        <time>2019-09-04T19:25:39Z</time>
      </trkpt>
      <trkpt lat="43.88097" lon="5.60938">
        <ele>554</ele>
        <time>2019-09-04T19:25:41Z</time>
      </trkpt>
      <trkpt lat="43.88099" lon="5.60965">
        <ele>548</ele>
        <time>2019-09-04T19:25:46Z</time>
      </trkpt>
      <trkpt lat="43.88111" lon="5.60978">
        <ele>543</ele>
        <time>2019-09-04T19:25:49Z</time>
      </trkpt>
      <trkpt lat="43.88127" lon="5.61009">
        <ele>535</ele>
        <time>2019-09-04T19:25:56Z</time>
      </trkpt>
      <trkpt lat="43.88129" lon="5.61031">
        <ele>531</ele>
        <time>2019-09-04T19:25:59Z</time>
      </trkpt>
      <trkpt lat="43.88136" lon="5.61039">
        <ele>529</ele>
        <time>2019-09-04T19:26:01Z</time>
      </trkpt>
      <trkpt lat="43.88135" lon="5.6105">
        <ele>527</ele>
        <time>2019-09-04T19:26:03Z</time>
      </trkpt>
      <trkpt lat="43.8813" lon="5.61056">
        <ele>527</ele>
        <time>2019-09-04T19:26:05Z</time>
      </trkpt>
      <trkpt lat="43.88127" lon="5.61065">
        <ele>525</ele>
        <time>2019-09-04T19:26:06Z</time>
      </trkpt>
      <trkpt lat="43.88131" lon="5.61075">
        <ele>523</ele>
        <time>2019-09-04T19:26:08Z</time>
      </trkpt>
      <trkpt lat="43.88145" lon="5.61084">
        <ele>521</ele>
        <time>2019-09-04T19:26:12Z</time>
      </trkpt>
      <trkpt lat="43.88147" lon="5.61095">
        <ele>520</ele>
        <time>2019-09-04T19:26:14Z</time>
      </trkpt>
      <trkpt lat="43.88162" lon="5.61099">
        <ele>518</ele>
        <time>2019-09-04T19:26:17Z</time>
      </trkpt>
      <trkpt lat="43.88167" lon="5.61106">
        <ele>517</ele>
        <time>2019-09-04T19:26:19Z</time>
      </trkpt>
      <trkpt lat="43.88167" lon="5.61124">
        <ele>515</ele>
        <time>2019-09-04T19:26:22Z</time>
      </trkpt>
      <trkpt lat="43.88163" lon="5.61141">
        <ele>513</ele>
        <time>2019-09-04T19:26:25Z</time>
      </trkpt>
      <trkpt lat="43.88167" lon="5.61151">
        <ele>512</ele>
        <time>2019-09-04T19:26:27Z</time>
      </trkpt>
      <trkpt lat="43.88199" lon="5.61196">
        <ele>506</ele>
        <time>2019-09-04T19:26:38Z</time>
      </trkpt>
      <trkpt lat="43.88222" lon="5.61218">
        <ele>505</ele>
        <time>2019-09-04T19:26:44Z</time>
      </trkpt>
      <trkpt lat="43.8823" lon="5.61233">
        <ele>504</ele>
        <time>2019-09-04T19:26:47Z</time>
      </trkpt>
      <trkpt lat="43.88232" lon="5.6125">
        <ele>504</ele>
        <time>2019-09-04T19:26:50Z</time>
      </trkpt>
      <trkpt lat="43.8823" lon="5.61269">
        <ele>504</ele>
        <time>2019-09-04T19:26:54Z</time>
      </trkpt>
      <trkpt lat="43.88207" lon="5.61289">
        <ele>504</ele>
        <time>2019-09-04T19:27:00Z</time>
      </trkpt>
      <trkpt lat="43.88189" lon="5.613">
        <ele>504</ele>
        <time>2019-09-04T19:27:04Z</time>
      </trkpt>
      <trkpt lat="43.88172" lon="5.61304">
        <ele>504</ele>
        <time>2019-09-04T19:27:08Z</time>
      </trkpt>
      <trkpt lat="43.88177" lon="5.61328">
        <ele>504</ele>
        <time>2019-09-04T19:27:13Z</time>
      </trkpt>
      <trkpt lat="43.88175" lon="5.61336">
        <ele>504</ele>
        <time>2019-09-04T19:27:14Z</time>
      </trkpt>
      <trkpt lat="43.8817" lon="5.61342">
        <ele>504</ele>
        <time>2019-09-04T19:27:16Z</time>
      </trkpt>
      <trkpt lat="43.88166" lon="5.61365">
        <ele>505</ele>
        <time>2019-09-04T19:27:20Z</time>
      </trkpt>
      <trkpt lat="43.8818" lon="5.61432">
        <ele>508</ele>
        <time>2019-09-04T19:27:31Z</time>
      </trkpt>
      <trkpt lat="43.88181" lon="5.61481">
        <ele>511</ele>
        <time>2019-09-04T19:27:40Z</time>
      </trkpt>
      <trkpt lat="43.88177" lon="5.61495">
        <ele>513</ele>
        <time>2019-09-04T19:27:42Z</time>
      </trkpt>
      <trkpt lat="43.88169" lon="5.61504">
        <ele>514</ele>
        <time>2019-09-04T19:27:45Z</time>
      </trkpt>
      <trkpt lat="43.88155" lon="5.61512">
        <ele>515</ele>
        <time>2019-09-04T19:27:48Z</time>
      </trkpt>
      <trkpt lat="43.88073" lon="5.6151">
        <ele>515</ele>
        <time>2019-09-04T19:28:07Z</time>
      </trkpt>
      <trkpt lat="43.88027" lon="5.61528">
        <ele>515</ele>
        <time>2019-09-04T19:28:18Z</time>
      </trkpt>
      <trkpt lat="43.88021" lon="5.6154">
        <ele>516</ele>
        <time>2019-09-04T19:28:21Z</time>
      </trkpt>
      <trkpt lat="43.87979" lon="5.6156">
        <ele>516</ele>
        <time>2019-09-04T19:28:31Z</time>
      </trkpt>
      <trkpt lat="43.87964" lon="5.61572">
        <ele>516</ele>
        <time>2019-09-04T19:28:35Z</time>
      </trkpt>
      <trkpt lat="43.87959" lon="5.61582">
        <ele>517</ele>
        <time>2019-09-04T19:28:37Z</time>
      </trkpt>
      <trkpt lat="43.87958" lon="5.61594">
        <ele>518</ele>
        <time>2019-09-04T19:28:39Z</time>
      </trkpt>
      <trkpt lat="43.87936" lon="5.61585">
        <ele>515</ele>
        <time>2019-09-04T19:28:45Z</time>
      </trkpt>
      <trkpt lat="43.87911" lon="5.61564">
        <ele>511</ele>
        <time>2019-09-04T19:28:52Z</time>
      </trkpt>
      <trkpt lat="43.87902" lon="5.61564">
        <ele>510</ele>
        <time>2019-09-04T19:28:54Z</time>
      </trkpt>
      <trkpt lat="43.87894" lon="5.6157">
        <ele>510</ele>
        <time>2019-09-04T19:28:56Z</time>
      </trkpt>
      <trkpt lat="43.87882" lon="5.61573">
        <ele>510</ele>
        <time>2019-09-04T19:28:59Z</time>
      </trkpt>
      <trkpt lat="43.87835" lon="5.61564">
        <ele>505</ele>
        <time>2019-09-04T19:29:10Z</time>
      </trkpt>
      <trkpt lat="43.87812" lon="5.6157">
        <ele>503</ele>
        <time>2019-09-04T19:29:15Z</time>
      </trkpt>
      <trkpt lat="43.87784" lon="5.61553">
        <ele>499</ele>
        <time>2019-09-04T19:29:22Z</time>
      </trkpt>
      <trkpt lat="43.87764" lon="5.61548">
        <ele>497</ele>
        <time>2019-09-04T19:29:27Z</time>
      </trkpt>
      <trkpt lat="43.87723" lon="5.61556">
        <ele>492</ele>
        <time>2019-09-04T19:29:37Z</time>
      </trkpt>
      <trkpt lat="43.87685" lon="5.61567">
        <ele>487</ele>
        <time>2019-09-04T19:29:46Z</time>
      </trkpt>
      <trkpt lat="43.87679" lon="5.61571">
        <ele>487</ele>
        <time>2019-09-04T19:29:47Z</time>
      </trkpt>
      <trkpt lat="43.87677" lon="5.61588">
        <ele>486</ele>
        <time>2019-09-04T19:29:50Z</time>
      </trkpt>
      <trkpt lat="43.87682" lon="5.61615">
        <ele>485</ele>
        <time>2019-09-04T19:29:55Z</time>
      </trkpt>
      <trkpt lat="43.87687" lon="5.6167">
        <ele>483</ele>
        <time>2019-09-04T19:30:04Z</time>
      </trkpt>
      <trkpt lat="43.87703" lon="5.61739">
        <ele>481</ele>
        <time>2019-09-04T19:30:16Z</time>
      </trkpt>
      <trkpt lat="43.87699" lon="5.61752">
        <ele>480</ele>
        <time>2019-09-04T19:30:19Z</time>
      </trkpt>
      <trkpt lat="43.87693" lon="5.61757">
        <ele>479</ele>
        <time>2019-09-04T19:30:20Z</time>
      </trkpt>
      <trkpt lat="43.87685" lon="5.61758">
        <ele>478</ele>
        <time>2019-09-04T19:30:22Z</time>
      </trkpt>
      <trkpt lat="43.87677" lon="5.61745">
        <ele>477</ele>
        <time>2019-09-04T19:30:25Z</time>
      </trkpt>
      <trkpt lat="43.87664" lon="5.61732">
        <ele>476</ele>
        <time>2019-09-04T19:30:29Z</time>
      </trkpt>
      <trkpt lat="43.87648" lon="5.61721">
        <ele>476</ele>
        <time>2019-09-04T19:30:33Z</time>
      </trkpt>
      <trkpt lat="43.8764" lon="5.61719">
        <ele>476</ele>
        <time>2019-09-04T19:30:35Z</time>
      </trkpt>
      <trkpt lat="43.87635" lon="5.61721">
        <ele>475</ele>
        <time>2019-09-04T19:30:36Z</time>
      </trkpt>
      <trkpt lat="43.87613" lon="5.61756">
        <ele>476</ele>
        <time>2019-09-04T19:30:44Z</time>
      </trkpt>
      <trkpt lat="43.87634" lon="5.61781">
        <ele>478</ele>
        <time>2019-09-04T19:30:51Z</time>
      </trkpt>
      <trkpt lat="43.87654" lon="5.61822">
        <ele>478</ele>
        <time>2019-09-04T19:30:59Z</time>
      </trkpt>
      <trkpt lat="43.87684" lon="5.61871">
        <ele>482</ele>
        <time>2019-09-04T19:31:10Z</time>
      </trkpt>
      <trkpt lat="43.877" lon="5.61902">
        <ele>484</ele>
        <time>2019-09-04T19:31:16Z</time>
      </trkpt>
      <trkpt lat="43.87765" lon="5.61989">
        <ele>486</ele>
        <time>2019-09-04T19:31:37Z</time>
      </trkpt>
      <trkpt lat="43.87789" lon="5.62039">
        <ele>491</ele>
        <time>2019-09-04T19:31:47Z</time>
      </trkpt>
      <trkpt lat="43.87801" lon="5.62055">
        <ele>492</ele>
        <time>2019-09-04T19:31:51Z</time>
      </trkpt>
      <trkpt lat="43.87844" lon="5.62156">
        <ele>497</ele>
        <time>2019-09-04T19:32:11Z</time>
      </trkpt>
      <trkpt lat="43.87857" lon="5.622">
        <ele>501</ele>
        <time>2019-09-04T19:32:19Z</time>
      </trkpt>
      <trkpt lat="43.87879" lon="5.62261">
        <ele>505</ele>
        <time>2019-09-04T19:32:30Z</time>
      </trkpt>
      <trkpt lat="43.87891" lon="5.62282">
        <ele>505</ele>
        <time>2019-09-04T19:32:35Z</time>
      </trkpt>
      <trkpt lat="43.8791" lon="5.62326">
        <ele>507</ele>
        <time>2019-09-04T19:32:44Z</time>
      </trkpt>
      <trkpt lat="43.87954" lon="5.6241">
        <ele>512</ele>
        <time>2019-09-04T19:33:01Z</time>
      </trkpt>
      <trkpt lat="43.87974" lon="5.62428">
        <ele>511</ele>
        <time>2019-09-04T19:33:07Z</time>
      </trkpt>
      <trkpt lat="43.87986" lon="5.62444">
        <ele>511</ele>
        <time>2019-09-04T19:33:11Z</time>
      </trkpt>
      <trkpt lat="43.88056" lon="5.62508">
        <ele>513</ele>
        <time>2019-09-04T19:33:30Z</time>
      </trkpt>
      <trkpt lat="43.88093" lon="5.62546">
        <ele>515</ele>
        <time>2019-09-04T19:33:41Z</time>
      </trkpt>
      <trkpt lat="43.88122" lon="5.62563">
        <ele>515</ele>
        <time>2019-09-04T19:33:48Z</time>
      </trkpt>
      <trkpt lat="43.88181" lon="5.62611">
        <ele>517</ele>
        <time>2019-09-04T19:34:04Z</time>
      </trkpt>
      <trkpt lat="43.88196" lon="5.62632">
        <ele>519</ele>
        <time>2019-09-04T19:34:09Z</time>
      </trkpt>
      <trkpt lat="43.88232" lon="5.62672">
        <ele>520</ele>
        <time>2019-09-04T19:34:20Z</time>
      </trkpt>
      <trkpt lat="43.88242" lon="5.62676">
        <ele>519</ele>
        <time>2019-09-04T19:34:22Z</time>
      </trkpt>
      <trkpt lat="43.88253" lon="5.62676">
        <ele>518</ele>
        <time>2019-09-04T19:34:25Z</time>
      </trkpt>
      <trkpt lat="43.88272" lon="5.62719">
        <ele>524</ele>
        <time>2019-09-04T19:34:33Z</time>
      </trkpt>
      <trkpt lat="43.8829" lon="5.6274">
        <ele>525</ele>
        <time>2019-09-04T19:34:39Z</time>
      </trkpt>
      <trkpt lat="43.88301" lon="5.62749">
        <ele>526</ele>
        <time>2019-09-04T19:34:42Z</time>
      </trkpt>
      <trkpt lat="43.88403" lon="5.62793">
        <ele>526</ele>
        <time>2019-09-04T19:35:07Z</time>
      </trkpt>
      <trkpt lat="43.88412" lon="5.62801">
        <ele>527</ele>
        <time>2019-09-04T19:35:09Z</time>
      </trkpt>
      <trkpt lat="43.88391" lon="5.62807">
        <ele>529</ele>
        <time>2019-09-04T19:35:14Z</time>
      </trkpt>
      <trkpt lat="43.88374" lon="5.62809">
        <ele>531</ele>
        <time>2019-09-04T19:35:18Z</time>
      </trkpt>
      <trkpt lat="43.88326" lon="5.6283">
        <ele>538</ele>
        <time>2019-09-04T19:35:30Z</time>
      </trkpt>
      <trkpt lat="43.88293" lon="5.6286">
        <ele>547</ele>
        <time>2019-09-04T19:35:39Z</time>
      </trkpt>
      <trkpt lat="43.8823" lon="5.62866">
        <ele>555</ele>
        <time>2019-09-04T19:35:54Z</time>
      </trkpt>
      <trkpt lat="43.88224" lon="5.6287">
        <ele>557</ele>
        <time>2019-09-04T19:35:56Z</time>
      </trkpt>
      <trkpt lat="43.88225" lon="5.6288">
        <ele>559</ele>
        <time>2019-09-04T19:35:57Z</time>
      </trkpt>
      <trkpt lat="43.88176" lon="5.62972">
        <ele>579</ele>
        <time>2019-09-04T19:36:17Z</time>
      </trkpt>
      <trkpt lat="43.88172" lon="5.62987">
        <ele>581</ele>
        <time>2019-09-04T19:36:19Z</time>
      </trkpt>
      <trkpt lat="43.88179" lon="5.62997">
        <ele>582</ele>
        <time>2019-09-04T19:36:22Z</time>
      </trkpt>
      <trkpt lat="43.88188" lon="5.63003">
        <ele>583</ele>
        <time>2019-09-04T19:36:24Z</time>
      </trkpt>
      <trkpt lat="43.88201" lon="5.63003">
        <ele>582</ele>
        <time>2019-09-04T19:36:27Z</time>
      </trkpt>
      <trkpt lat="43.88207" lon="5.63009">
        <ele>583</ele>
        <time>2019-09-04T19:36:29Z</time>
      </trkpt>
      <trkpt lat="43.8821" lon="5.63019">
        <ele>584</ele>
        <time>2019-09-04T19:36:31Z</time>
      </trkpt>
      <trkpt lat="43.88221" lon="5.63032">
        <ele>586</ele>
        <time>2019-09-04T19:36:34Z</time>
      </trkpt>
      <trkpt lat="43.88231" lon="5.63036">
        <ele>587</ele>
        <time>2019-09-04T19:36:36Z</time>
      </trkpt>
      <trkpt lat="43.88281" lon="5.63078">
        <ele>595</ele>
        <time>2019-09-04T19:36:50Z</time>
      </trkpt>
      <trkpt lat="43.88284" lon="5.6309">
        <ele>596</ele>
        <time>2019-09-04T19:36:52Z</time>
      </trkpt>
      <trkpt lat="43.883" lon="5.63112">
        <ele>598</ele>
        <time>2019-09-04T19:36:57Z</time>
      </trkpt>
      <trkpt lat="43.88309" lon="5.63119">
        <ele>599</ele>
        <time>2019-09-04T19:37:00Z</time>
      </trkpt>
      <trkpt lat="43.88316" lon="5.63134">
        <ele>601</ele>
        <time>2019-09-04T19:37:03Z</time>
      </trkpt>
      <trkpt lat="43.88324" lon="5.63139">
        <ele>602</ele>
        <time>2019-09-04T19:37:05Z</time>
      </trkpt>
      <trkpt lat="43.88328" lon="5.63145">
        <ele>603</ele>
        <time>2019-09-04T19:37:06Z</time>
      </trkpt>
      <trkpt lat="43.88338" lon="5.6315">
        <ele>604</ele>
        <time>2019-09-04T19:37:09Z</time>
      </trkpt>
      <trkpt lat="43.88339" lon="5.63161">
        <ele>605</ele>
        <time>2019-09-04T19:37:11Z</time>
      </trkpt>
      <trkpt lat="43.88349" lon="5.63179">
        <ele>606</ele>
        <time>2019-09-04T19:37:14Z</time>
      </trkpt>
      <trkpt lat="43.88358" lon="5.63182">
        <ele>607</ele>
        <time>2019-09-04T19:37:17Z</time>
      </trkpt>
      <trkpt lat="43.88364" lon="5.63191">
        <ele>607</ele>
        <time>2019-09-04T19:37:19Z</time>
      </trkpt>
      <trkpt lat="43.88374" lon="5.63242">
        <ele>610</ele>
        <time>2019-09-04T19:37:27Z</time>
      </trkpt>
      <trkpt lat="43.88385" lon="5.63266">
        <ele>612</ele>
        <time>2019-09-04T19:37:32Z</time>
      </trkpt>
      <trkpt lat="43.88387" lon="5.63281">
        <ele>613</ele>
        <time>2019-09-04T19:37:35Z</time>
      </trkpt>
      <trkpt lat="43.88384" lon="5.6329">
        <ele>613</ele>
        <time>2019-09-04T19:37:37Z</time>
      </trkpt>
      <trkpt lat="43.88396" lon="5.63284">
        <ele>614</ele>
        <time>2019-09-04T19:37:39Z</time>
      </trkpt>
      <trkpt lat="43.88403" lon="5.63287">
        <ele>614</ele>
        <time>2019-09-04T19:37:41Z</time>
      </trkpt>
      <trkpt lat="43.88423" lon="5.63325">
        <ele>618</ele>
        <time>2019-09-04T19:37:49Z</time>
      </trkpt>
      <trkpt lat="43.88434" lon="5.6333">
        <ele>619</ele>
        <time>2019-09-04T19:37:52Z</time>
      </trkpt>
      <trkpt lat="43.88512" lon="5.63413">
        <ele>631</ele>
        <time>2019-09-04T19:38:15Z</time>
      </trkpt>
      <trkpt lat="43.88523" lon="5.63417">
        <ele>632</ele>
        <time>2019-09-04T19:38:17Z</time>
      </trkpt>
      <trkpt lat="43.88542" lon="5.63417">
        <ele>634</ele>
        <time>2019-09-04T19:38:22Z</time>
      </trkpt>
      <trkpt lat="43.88549" lon="5.6343">
        <ele>634</ele>
        <time>2019-09-04T19:38:25Z</time>
      </trkpt>
      <trkpt lat="43.88558" lon="5.63438">
        <ele>635</ele>
        <time>2019-09-04T19:38:27Z</time>
      </trkpt>
      <trkpt lat="43.8857" lon="5.63442">
        <ele>636</ele>
        <time>2019-09-04T19:38:30Z</time>
      </trkpt>
      <trkpt lat="43.88578" lon="5.63466">
        <ele>637</ele>
        <time>2019-09-04T19:38:34Z</time>
      </trkpt>
      <trkpt lat="43.88598" lon="5.6355">
        <ele>640</ele>
        <time>2019-09-04T19:38:49Z</time>
      </trkpt>
      <trkpt lat="43.88606" lon="5.6357">
        <ele>640</ele>
        <time>2019-09-04T19:38:53Z</time>
      </trkpt>
      <trkpt lat="43.88619" lon="5.63588">
        <ele>642</ele>
        <time>2019-09-04T19:38:57Z</time>
      </trkpt>
      <trkpt lat="43.88626" lon="5.63593">
        <ele>642</ele>
        <time>2019-09-04T19:38:59Z</time>
      </trkpt>
      <trkpt lat="43.8864" lon="5.63596">
        <ele>644</ele>
        <time>2019-09-04T19:39:03Z</time>
      </trkpt>
      <trkpt lat="43.88646" lon="5.63603">
        <ele>644</ele>
        <time>2019-09-04T19:39:04Z</time>
      </trkpt>
      <trkpt lat="43.8866" lon="5.63626">
        <ele>646</ele>
        <time>2019-09-04T19:39:10Z</time>
      </trkpt>
      <trkpt lat="43.88667" lon="5.63632">
        <ele>646</ele>
        <time>2019-09-04T19:39:11Z</time>
      </trkpt>
      <trkpt lat="43.88672" lon="5.6364">
        <ele>647</ele>
        <time>2019-09-04T19:39:13Z</time>
      </trkpt>
      <trkpt lat="43.88674" lon="5.63651">
        <ele>647</ele>
        <time>2019-09-04T19:39:15Z</time>
      </trkpt>
      <trkpt lat="43.88682" lon="5.63658">
        <ele>648</ele>
        <time>2019-09-04T19:39:17Z</time>
      </trkpt>
      <trkpt lat="43.88687" lon="5.63668">
        <ele>648</ele>
        <time>2019-09-04T19:39:19Z</time>
      </trkpt>
      <trkpt lat="43.88677" lon="5.63734">
        <ele>646</ele>
        <time>2019-09-04T19:39:31Z</time>
      </trkpt>
      <trkpt lat="43.88667" lon="5.63767">
        <ele>643</ele>
        <time>2019-09-04T19:39:37Z</time>
      </trkpt>
      <trkpt lat="43.88671" lon="5.63838">
        <ele>641</ele>
        <time>2019-09-04T19:39:49Z</time>
      </trkpt>
      <trkpt lat="43.88662" lon="5.63968">
        <ele>638</ele>
        <time>2019-09-04T19:40:11Z</time>
      </trkpt>
      <trkpt lat="43.88655" lon="5.64017">
        <ele>637</ele>
        <time>2019-09-04T19:40:19Z</time>
      </trkpt>
      <trkpt lat="43.88647" lon="5.64051">
        <ele>636</ele>
        <time>2019-09-04T19:40:25Z</time>
      </trkpt>
      <trkpt lat="43.88627" lon="5.64095">
        <ele>633</ele>
        <time>2019-09-04T19:40:34Z</time>
      </trkpt>
      <trkpt lat="43.88626" lon="5.64113">
        <ele>632</ele>
        <time>2019-09-04T19:40:37Z</time>
      </trkpt>
      <trkpt lat="43.88609" lon="5.6415">
        <ele>630</ele>
        <time>2019-09-04T19:40:44Z</time>
      </trkpt>
      <trkpt lat="43.88593" lon="5.64197">
        <ele>628</ele>
        <time>2019-09-04T19:40:53Z</time>
      </trkpt>
      <trkpt lat="43.88561" lon="5.64264">
        <ele>624</ele>
        <time>2019-09-04T19:41:07Z</time>
      </trkpt>
      <trkpt lat="43.8855" lon="5.64292">
        <ele>623</ele>
        <time>2019-09-04T19:41:12Z</time>
      </trkpt>
      <trkpt lat="43.88542" lon="5.64302">
        <ele>622</ele>
        <time>2019-09-04T19:41:14Z</time>
      </trkpt>
      <trkpt lat="43.88535" lon="5.64317">
        <ele>621</ele>
        <time>2019-09-04T19:41:18Z</time>
      </trkpt>
      <trkpt lat="43.88534" lon="5.64328">
        <ele>621</ele>
        <time>2019-09-04T19:41:19Z</time>
      </trkpt>
      <trkpt lat="43.8851" lon="5.64357">
        <ele>618</ele>
        <time>2019-09-04T19:41:27Z</time>
      </trkpt>
      <trkpt lat="43.88481" lon="5.64398">
        <ele>616</ele>
        <time>2019-09-04T19:41:36Z</time>
      </trkpt>
      <trkpt lat="43.88442" lon="5.64477">
        <ele>612</ele>
        <time>2019-09-04T19:41:53Z</time>
      </trkpt>
      <trkpt lat="43.88417" lon="5.64536">
        <ele>608</ele>
        <time>2019-09-04T19:42:04Z</time>
      </trkpt>
      <trkpt lat="43.88386" lon="5.64574">
        <ele>604</ele>
        <time>2019-09-04T19:42:14Z</time>
      </trkpt>
      <trkpt lat="43.88354" lon="5.64621">
        <ele>600</ele>
        <time>2019-09-04T19:42:25Z</time>
      </trkpt>
      <trkpt lat="43.88321" lon="5.64635">
        <ele>597</ele>
        <time>2019-09-04T19:42:33Z</time>
      </trkpt>
      <trkpt lat="43.88274" lon="5.64671">
        <ele>593</ele>
        <time>2019-09-04T19:42:45Z</time>
      </trkpt>
      <trkpt lat="43.8825" lon="5.64699">
        <ele>591</ele>
        <time>2019-09-04T19:42:53Z</time>
      </trkpt>
      <trkpt lat="43.88212" lon="5.64759">
        <ele>586</ele>
        <time>2019-09-04T19:43:06Z</time>
      </trkpt>
      <trkpt lat="43.88175" lon="5.64779">
        <ele>583</ele>
        <time>2019-09-04T19:43:15Z</time>
      </trkpt>
      <trkpt lat="43.88142" lon="5.64806">
        <ele>581</ele>
        <time>2019-09-04T19:43:24Z</time>
      </trkpt>
      <trkpt lat="43.88131" lon="5.6481">
        <ele>580</ele>
        <time>2019-09-04T19:43:27Z</time>
      </trkpt>
      <trkpt lat="43.88075" lon="5.64933">
        <ele>570</ele>
        <time>2019-09-04T19:43:51Z</time>
      </trkpt>
      <trkpt lat="43.88067" lon="5.64971">
        <ele>569</ele>
        <time>2019-09-04T19:43:58Z</time>
      </trkpt>
      <trkpt lat="43.88068" lon="5.65028">
        <ele>568</ele>
        <time>2019-09-04T19:44:08Z</time>
      </trkpt>
      <trkpt lat="43.88066" lon="5.65046">
        <ele>568</ele>
        <time>2019-09-04T19:44:11Z</time>
      </trkpt>
      <trkpt lat="43.88062" lon="5.65066">
        <ele>567</ele>
        <time>2019-09-04T19:44:14Z</time>
      </trkpt>
      <trkpt lat="43.88041" lon="5.65126">
        <ele>565</ele>
        <time>2019-09-04T19:44:25Z</time>
      </trkpt>
      <trkpt lat="43.88039" lon="5.6514">
        <ele>564</ele>
        <time>2019-09-04T19:44:28Z</time>
      </trkpt>
      <trkpt lat="43.88043" lon="5.65251">
        <ele>561</ele>
        <time>2019-09-04T19:44:47Z</time>
      </trkpt>
      <trkpt lat="43.88042" lon="5.65296">
        <ele>562</ele>
        <time>2019-09-04T19:44:54Z</time>
      </trkpt>
      <trkpt lat="43.88039" lon="5.65315">
        <ele>562</ele>
        <time>2019-09-04T19:44:57Z</time>
      </trkpt>
      <trkpt lat="43.88012" lon="5.65402">
        <ele>559</ele>
        <time>2019-09-04T19:45:13Z</time>
      </trkpt>
      <trkpt lat="43.8801" lon="5.65421">
        <ele>558</ele>
        <time>2019-09-04T19:45:17Z</time>
      </trkpt>
      <trkpt lat="43.8801" lon="5.65891">
        <ele>558</ele>
        <time>2019-09-04T19:46:36Z</time>
      </trkpt>
      <trkpt lat="43.87902" lon="5.6589">
        <ele>555</ele>
        <time>2019-09-04T19:47:01Z</time>
      </trkpt>
      <trkpt lat="43.87895" lon="5.65894">
        <ele>556</ele>
        <time>2019-09-04T19:47:03Z</time>
      </trkpt>
      <trkpt lat="43.87893" lon="5.65904">
        <ele>556</ele>
        <time>2019-09-04T19:47:04Z</time>
      </trkpt>
      <trkpt lat="43.87926" lon="5.65983">
        <ele>552</ele>
        <time>2019-09-04T19:47:20Z</time>
      </trkpt>
      <trkpt lat="43.87957" lon="5.66047">
        <ele>548</ele>
        <time>2019-09-04T19:47:33Z</time>
      </trkpt>
      <trkpt lat="43.87966" lon="5.66061">
        <ele>547</ele>
        <time>2019-09-04T19:47:36Z</time>
      </trkpt>
      <trkpt lat="43.88007" lon="5.66104">
        <ele>547</ele>
        <time>2019-09-04T19:47:48Z</time>
      </trkpt>
      <trkpt lat="43.88033" lon="5.66115">
        <ele>549</ele>
        <time>2019-09-04T19:47:54Z</time>
      </trkpt>
      <trkpt lat="43.88041" lon="5.66121">
        <ele>550</ele>
        <time>2019-09-04T19:47:56Z</time>
      </trkpt>
      <trkpt lat="43.88048" lon="5.66147">
        <ele>549</ele>
        <time>2019-09-04T19:48:01Z</time>
      </trkpt>
      <trkpt lat="43.88046" lon="5.6616">
        <ele>548</ele>
        <time>2019-09-04T19:48:03Z</time>
      </trkpt>
      <trkpt lat="43.88009" lon="5.6622">
        <ele>547</ele>
        <time>2019-09-04T19:48:17Z</time>
      </trkpt>
      <trkpt lat="43.88048" lon="5.66221">
        <ele>551</ele>
        <time>2019-09-04T19:48:26Z</time>
      </trkpt>
      <trkpt lat="43.88091" lon="5.6623">
        <ele>556</ele>
        <time>2019-09-04T19:48:36Z</time>
      </trkpt>
      <trkpt lat="43.88156" lon="5.6639">
        <ele>562</ele>
        <time>2019-09-04T19:49:07Z</time>
      </trkpt>
      <trkpt lat="43.88185" lon="5.66453">
        <ele>565</ele>
        <time>2019-09-04T19:49:19Z</time>
      </trkpt>
      <trkpt lat="43.88206" lon="5.66488">
        <ele>566</ele>
        <time>2019-09-04T19:49:27Z</time>
      </trkpt>
      <trkpt lat="43.88236" lon="5.66553">
        <ele>571</ele>
        <time>2019-09-04T19:49:40Z</time>
      </trkpt>
      <trkpt lat="43.883" lon="5.66713">
        <ele>583</ele>
        <time>2019-09-04T19:50:11Z</time>
      </trkpt>
      <trkpt lat="43.88361" lon="5.66851">
        <ele>585</ele>
        <time>2019-09-04T19:50:38Z</time>
      </trkpt>
      <trkpt lat="43.88341" lon="5.66865">
        <ele>583</ele>
        <time>2019-09-04T19:50:43Z</time>
      </trkpt>
      <trkpt lat="43.88333" lon="5.66879">
        <ele>583</ele>
        <time>2019-09-04T19:50:46Z</time>
      </trkpt>
      <trkpt lat="43.88321" lon="5.66925">
        <ele>583</ele>
        <time>2019-09-04T19:50:55Z</time>
      </trkpt>
      <trkpt lat="43.88315" lon="5.66938">
        <ele>583</ele>
        <time>2019-09-04T19:50:57Z</time>
      </trkpt>
      <trkpt lat="43.88286" lon="5.6698">
        <ele>583</ele>
        <time>2019-09-04T19:51:07Z</time>
      </trkpt>
      <trkpt lat="43.88268" lon="5.67013">
        <ele>582</ele>
        <time>2019-09-04T19:51:14Z</time>
      </trkpt>
      <trkpt lat="43.88249" lon="5.67075">
        <ele>583</ele>
        <time>2019-09-04T19:51:25Z</time>
      </trkpt>
      <trkpt lat="43.88243" lon="5.67088">
        <ele>583</ele>
        <time>2019-09-04T19:51:28Z</time>
      </trkpt>
      <trkpt lat="43.88224" lon="5.67102">
        <ele>584</ele>
        <time>2019-09-04T19:51:33Z</time>
      </trkpt>
      <trkpt lat="43.88202" lon="5.67112">
        <ele>585</ele>
        <time>2019-09-04T19:51:38Z</time>
      </trkpt>
      <trkpt lat="43.88116" lon="5.67203">
        <ele>582</ele>
        <time>2019-09-04T19:52:04Z</time>
      </trkpt>
      <trkpt lat="43.88111" lon="5.67214">
        <ele>581</ele>
        <time>2019-09-04T19:52:06Z</time>
      </trkpt>
      <trkpt lat="43.88108" lon="5.67255">
        <ele>581</ele>
        <time>2019-09-04T19:52:13Z</time>
      </trkpt>
      <trkpt lat="43.88088" lon="5.6734">
        <ele>581</ele>
        <time>2019-09-04T19:52:28Z</time>
      </trkpt>
      <trkpt lat="43.88087" lon="5.67375">
        <ele>580</ele>
        <time>2019-09-04T19:52:34Z</time>
      </trkpt>
      <trkpt lat="43.88093" lon="5.67406">
        <ele>579</ele>
        <time>2019-09-04T19:52:39Z</time>
      </trkpt>
      <trkpt lat="43.88115" lon="5.67462">
        <ele>579</ele>
        <time>2019-09-04T19:52:50Z</time>
      </trkpt>
      <trkpt lat="43.88132" lon="5.67515">
        <ele>579</ele>
        <time>2019-09-04T19:52:59Z</time>
      </trkpt>
      <trkpt lat="43.88137" lon="5.67523">
        <ele>580</ele>
        <time>2019-09-04T19:53:01Z</time>
      </trkpt>
      <trkpt lat="43.88178" lon="5.67565">
        <ele>582</ele>
        <time>2019-09-04T19:53:13Z</time>
      </trkpt>
      <trkpt lat="43.88217" lon="5.67616">
        <ele>583</ele>
        <time>2019-09-04T19:53:26Z</time>
      </trkpt>
      <trkpt lat="43.88256" lon="5.67673">
        <ele>587</ele>
        <time>2019-09-04T19:53:39Z</time>
      </trkpt>
      <trkpt lat="43.88281" lon="5.67749">
        <ele>588</ele>
        <time>2019-09-04T19:53:53Z</time>
      </trkpt>
      <trkpt lat="43.88324" lon="5.67862">
        <ele>592</ele>
        <time>2019-09-04T19:54:14Z</time>
      </trkpt>
      <trkpt lat="43.88378" lon="5.68034">
        <ele>592</ele>
        <time>2019-09-04T19:54:46Z</time>
      </trkpt>
      <trkpt lat="43.88398" lon="5.68157">
        <ele>590</ele>
        <time>2019-09-04T19:55:07Z</time>
      </trkpt>
      <trkpt lat="43.88384" lon="5.68164">
        <ele>591</ele>
        <time>2019-09-04T19:55:11Z</time>
      </trkpt>
      <trkpt lat="43.88365" lon="5.68165">
        <ele>592</ele>
        <time>2019-09-04T19:55:15Z</time>
      </trkpt>
      <trkpt lat="43.88348" lon="5.68161">
        <ele>593</ele>
        <time>2019-09-04T19:55:19Z</time>
      </trkpt>
      <trkpt lat="43.8834" lon="5.68181">
        <ele>593</ele>
        <time>2019-09-04T19:55:23Z</time>
      </trkpt>
      <trkpt lat="43.8834" lon="5.68203">
        <ele>593</ele>
        <time>2019-09-04T19:55:27Z</time>
      </trkpt>
      <trkpt lat="43.88326" lon="5.68282">
        <ele>590</ele>
        <time>2019-09-04T19:55:40Z</time>
      </trkpt>
      <trkpt lat="43.88319" lon="5.68292">
        <ele>589</ele>
        <time>2019-09-04T19:55:43Z</time>
      </trkpt>
      <trkpt lat="43.88236" lon="5.68328">
        <ele>584</ele>
        <time>2019-09-04T19:56:03Z</time>
      </trkpt>
      <trkpt lat="43.88212" lon="5.68326">
        <ele>583</ele>
        <time>2019-09-04T19:56:09Z</time>
      </trkpt>
      <trkpt lat="43.882" lon="5.68339">
        <ele>582</ele>
        <time>2019-09-04T19:56:12Z</time>
      </trkpt>
      <trkpt lat="43.88151" lon="5.68362">
        <ele>580</ele>
        <time>2019-09-04T19:56:24Z</time>
      </trkpt>
      <trkpt lat="43.88127" lon="5.68379">
        <ele>578</ele>
        <time>2019-09-04T19:56:31Z</time>
      </trkpt>
      <trkpt lat="43.88116" lon="5.68383">
        <ele>578</ele>
        <time>2019-09-04T19:56:33Z</time>
      </trkpt>
      <trkpt lat="43.88103" lon="5.68383">
        <ele>577</ele>
        <time>2019-09-04T19:56:36Z</time>
      </trkpt>
      <trkpt lat="43.88083" lon="5.68379">
        <ele>576</ele>
        <time>2019-09-04T19:56:41Z</time>
      </trkpt>
      <trkpt lat="43.88056" lon="5.68352">
        <ele>574</ele>
        <time>2019-09-04T19:56:49Z</time>
      </trkpt>
      <trkpt lat="43.88031" lon="5.68335">
        <ele>572</ele>
        <time>2019-09-04T19:56:55Z</time>
      </trkpt>
      <trkpt lat="43.87979" lon="5.68283">
        <ele>568</ele>
        <time>2019-09-04T19:57:10Z</time>
      </trkpt>
      <trkpt lat="43.87954" lon="5.68253">
        <ele>566</ele>
        <time>2019-09-04T19:57:18Z</time>
      </trkpt>
      <trkpt lat="43.87896" lon="5.68177">
        <ele>561</ele>
        <time>2019-09-04T19:57:37Z</time>
      </trkpt>
      <trkpt lat="43.87884" lon="5.68141">
        <ele>559</ele>
        <time>2019-09-04T19:57:43Z</time>
      </trkpt>
      <trkpt lat="43.87878" lon="5.68112">
        <ele>558</ele>
        <time>2019-09-04T19:57:48Z</time>
      </trkpt>
      <trkpt lat="43.87871" lon="5.68164">
        <ele>559</ele>
        <time>2019-09-04T19:57:57Z</time>
      </trkpt>
      <trkpt lat="43.87879" lon="5.68259">
        <ele>562</ele>
        <time>2019-09-04T19:58:13Z</time>
      </trkpt>
      <trkpt lat="43.87881" lon="5.68338">
        <ele>565</ele>
        <time>2019-09-04T19:58:27Z</time>
      </trkpt>
      <trkpt lat="43.87876" lon="5.68397">
        <ele>570</ele>
        <time>2019-09-04T19:58:37Z</time>
      </trkpt>
      <trkpt lat="43.87861" lon="5.68463">
        <ele>576</ele>
        <time>2019-09-04T19:58:48Z</time>
      </trkpt>
      <trkpt lat="43.87858" lon="5.68511">
        <ele>579</ele>
        <time>2019-09-04T19:58:57Z</time>
      </trkpt>
      <trkpt lat="43.87881" lon="5.68547">
        <ele>578</ele>
        <time>2019-09-04T19:59:05Z</time>
      </trkpt>
      <trkpt lat="43.8791" lon="5.68654">
        <ele>569</ele>
        <time>2019-09-04T19:59:24Z</time>
      </trkpt>
      <trkpt lat="43.87913" lon="5.68698">
        <ele>566</ele>
        <time>2019-09-04T19:59:31Z</time>
      </trkpt>
      <trkpt lat="43.87905" lon="5.68779">
        <ele>562</ele>
        <time>2019-09-04T19:59:45Z</time>
      </trkpt>
      <trkpt lat="43.87883" lon="5.68862">
        <ele>561</ele>
        <time>2019-09-04T20:00:00Z</time>
      </trkpt>
      <trkpt lat="43.8787" lon="5.68899">
        <ele>560</ele>
        <time>2019-09-04T20:00:07Z</time>
      </trkpt>
      <trkpt lat="43.87863" lon="5.68932">
        <ele>559</ele>
        <time>2019-09-04T20:00:13Z</time>
      </trkpt>
      <trkpt lat="43.87858" lon="5.68945">
        <ele>559</ele>
        <time>2019-09-04T20:00:15Z</time>
      </trkpt>
      <trkpt lat="43.87842" lon="5.68965">
        <ele>558</ele>
        <time>2019-09-04T20:00:20Z</time>
      </trkpt>
      <trkpt lat="43.87837" lon="5.6898">
        <ele>557</ele>
        <time>2019-09-04T20:00:23Z</time>
      </trkpt>
      <trkpt lat="43.87833" lon="5.69032">
        <ele>556</ele>
        <time>2019-09-04T20:00:32Z</time>
      </trkpt>
      <trkpt lat="43.87823" lon="5.69052">
        <ele>555</ele>
        <time>2019-09-04T20:00:36Z</time>
      </trkpt>
      <trkpt lat="43.87812" lon="5.69098">
        <ele>553</ele>
        <time>2019-09-04T20:00:44Z</time>
      </trkpt>
      <trkpt lat="43.87811" lon="5.69111">
        <ele>552</ele>
        <time>2019-09-04T20:00:46Z</time>
      </trkpt>
      <trkpt lat="43.87814" lon="5.69196">
        <ele>548</ele>
        <time>2019-09-04T20:01:01Z</time>
      </trkpt>
      <trkpt lat="43.87843" lon="5.69298">
        <ele>543</ele>
        <time>2019-09-04T20:01:19Z</time>
      </trkpt>
      <trkpt lat="43.87846" lon="5.69327">
        <ele>542</ele>
        <time>2019-09-04T20:01:24Z</time>
      </trkpt>
      <trkpt lat="43.8785" lon="5.69342">
        <ele>542</ele>
        <time>2019-09-04T20:01:27Z</time>
      </trkpt>
      <trkpt lat="43.87853" lon="5.69396">
        <ele>538</ele>
        <time>2019-09-04T20:01:36Z</time>
      </trkpt>
      <trkpt lat="43.87852" lon="5.69438">
        <ele>535</ele>
        <time>2019-09-04T20:01:43Z</time>
      </trkpt>
      <trkpt lat="43.87874" lon="5.69523">
        <ele>529</ele>
        <time>2019-09-04T20:01:58Z</time>
      </trkpt>
      <trkpt lat="43.87876" lon="5.69539">
        <ele>528</ele>
        <time>2019-09-04T20:02:01Z</time>
      </trkpt>
      <trkpt lat="43.87866" lon="5.69538">
        <ele>527</ele>
        <time>2019-09-04T20:02:03Z</time>
      </trkpt>
      <trkpt lat="43.87834" lon="5.69518">
        <ele>525</ele>
        <time>2019-09-04T20:02:11Z</time>
      </trkpt>
      <trkpt lat="43.87826" lon="5.69517">
        <ele>525</ele>
        <time>2019-09-04T20:02:13Z</time>
      </trkpt>
      <trkpt lat="43.87819" lon="5.69521">
        <ele>525</ele>
        <time>2019-09-04T20:02:15Z</time>
      </trkpt>
      <trkpt lat="43.87804" lon="5.69541">
        <ele>525</ele>
        <time>2019-09-04T20:02:20Z</time>
      </trkpt>
      <trkpt lat="43.87765" lon="5.69623">
        <ele>520</ele>
        <time>2019-09-04T20:02:36Z</time>
      </trkpt>
      <trkpt lat="43.87705" lon="5.69663">
        <ele>511</ele>
        <time>2019-09-04T20:02:52Z</time>
      </trkpt>
      <trkpt lat="43.87689" lon="5.69687">
        <ele>509</ele>
        <time>2019-09-04T20:02:57Z</time>
      </trkpt>
      <trkpt lat="43.87671" lon="5.69704">
        <ele>506</ele>
        <time>2019-09-04T20:03:02Z</time>
      </trkpt>
      <trkpt lat="43.87663" lon="5.69716">
        <ele>504</ele>
        <time>2019-09-04T20:03:05Z</time>
      </trkpt>
      <trkpt lat="43.8767" lon="5.69718">
        <ele>505</ele>
        <time>2019-09-04T20:03:07Z</time>
      </trkpt>
      <trkpt lat="43.87679" lon="5.69717">
        <ele>506</ele>
        <time>2019-09-04T20:03:09Z</time>
      </trkpt>
      <trkpt lat="43.87703" lon="5.69706">
        <ele>509</ele>
        <time>2019-09-04T20:03:15Z</time>
      </trkpt>
      <trkpt lat="43.87705" lon="5.69715">
        <ele>509</ele>
        <time>2019-09-04T20:03:16Z</time>
      </trkpt>
      <trkpt lat="43.87687" lon="5.69791">
        <ele>503</ele>
        <time>2019-09-04T20:03:30Z</time>
      </trkpt>
      <trkpt lat="43.87671" lon="5.69876">
        <ele>497</ele>
        <time>2019-09-04T20:03:45Z</time>
      </trkpt>
      <trkpt lat="43.87657" lon="5.6993">
        <ele>493</ele>
        <time>2019-09-04T20:03:54Z</time>
      </trkpt>
      <trkpt lat="43.87637" lon="5.69983">
        <ele>488</ele>
        <time>2019-09-04T20:04:04Z</time>
      </trkpt>
      <trkpt lat="43.87636" lon="5.69994">
        <ele>488</ele>
        <time>2019-09-04T20:04:06Z</time>
      </trkpt>
      <trkpt lat="43.87639" lon="5.70023">
        <ele>487</ele>
        <time>2019-09-04T20:04:11Z</time>
      </trkpt>
      <trkpt lat="43.87626" lon="5.70059">
        <ele>485</ele>
        <time>2019-09-04T20:04:18Z</time>
      </trkpt>
      <trkpt lat="43.87626" lon="5.7007">
        <ele>484</ele>
        <time>2019-09-04T20:04:20Z</time>
      </trkpt>
      <trkpt lat="43.87633" lon="5.70087">
        <ele>484</ele>
        <time>2019-09-04T20:04:23Z</time>
      </trkpt>
      <trkpt lat="43.87637" lon="5.70105">
        <ele>484</ele>
        <time>2019-09-04T20:04:26Z</time>
      </trkpt>
      <trkpt lat="43.87636" lon="5.70115">
        <ele>483</ele>
        <time>2019-09-04T20:04:28Z</time>
      </trkpt>
      <trkpt lat="43.87628" lon="5.70129">
        <ele>482</ele>
        <time>2019-09-04T20:04:31Z</time>
      </trkpt>
      <trkpt lat="43.87629" lon="5.7014">
        <ele>482</ele>
        <time>2019-09-04T20:04:33Z</time>
      </trkpt>
      <trkpt lat="43.87623" lon="5.70163">
        <ele>480</ele>
        <time>2019-09-04T20:04:37Z</time>
      </trkpt>
      <trkpt lat="43.87623" lon="5.70174">
        <ele>480</ele>
        <time>2019-09-04T20:04:39Z</time>
      </trkpt>
      <trkpt lat="43.87626" lon="5.70185">
        <ele>480</ele>
        <time>2019-09-04T20:04:41Z</time>
      </trkpt>
      <trkpt lat="43.8765" lon="5.7023">
        <ele>481</ele>
        <time>2019-09-04T20:04:50Z</time>
      </trkpt>
      <trkpt lat="43.87656" lon="5.70249">
        <ele>481</ele>
        <time>2019-09-04T20:04:54Z</time>
      </trkpt>
      <trkpt lat="43.87656" lon="5.70273">
        <ele>480</ele>
        <time>2019-09-04T20:04:58Z</time>
      </trkpt>
      <trkpt lat="43.87667" lon="5.70298">
        <ele>479</ele>
        <time>2019-09-04T20:05:03Z</time>
      </trkpt>
      <trkpt lat="43.87682" lon="5.70316">
        <ele>476</ele>
        <time>2019-09-04T20:05:07Z</time>
      </trkpt>
      <trkpt lat="43.87684" lon="5.70326">
        <ele>475</ele>
        <time>2019-09-04T20:05:09Z</time>
      </trkpt>
      <trkpt lat="43.87684" lon="5.70345">
        <ele>472</ele>
        <time>2019-09-04T20:05:12Z</time>
      </trkpt>
      <trkpt lat="43.87681" lon="5.70363">
        <ele>471</ele>
        <time>2019-09-04T20:05:15Z</time>
      </trkpt>
      <trkpt lat="43.87669" lon="5.70378">
        <ele>472</ele>
        <time>2019-09-04T20:05:19Z</time>
      </trkpt>
      <trkpt lat="43.87667" lon="5.70415">
        <ele>468</ele>
        <time>2019-09-04T20:05:25Z</time>
      </trkpt>
      <trkpt lat="43.87657" lon="5.70415">
        <ele>469</ele>
        <time>2019-09-04T20:05:28Z</time>
      </trkpt>
      <trkpt lat="43.87642" lon="5.70409">
        <ele>470</ele>
        <time>2019-09-04T20:05:31Z</time>
      </trkpt>
      <trkpt lat="43.87618" lon="5.70394">
        <ele>471</ele>
        <time>2019-09-04T20:05:38Z</time>
      </trkpt>
      <trkpt lat="43.87579" lon="5.70376">
        <ele>472</ele>
        <time>2019-09-04T20:05:47Z</time>
      </trkpt>
      <trkpt lat="43.87534" lon="5.70342">
        <ele>470</ele>
        <time>2019-09-04T20:05:59Z</time>
      </trkpt>
      <trkpt lat="43.87526" lon="5.70341">
        <ele>470</ele>
        <time>2019-09-04T20:06:01Z</time>
      </trkpt>
      <trkpt lat="43.87522" lon="5.70332">
        <ele>469</ele>
        <time>2019-09-04T20:06:03Z</time>
      </trkpt>
      <trkpt lat="43.87508" lon="5.70332">
        <ele>469</ele>
        <time>2019-09-04T20:06:06Z</time>
      </trkpt>
      <trkpt lat="43.874" lon="5.70309">
        <ele>462</ele>
        <time>2019-09-04T20:06:32Z</time>
      </trkpt>
      <trkpt lat="43.87344" lon="5.70288">
        <ele>460</ele>
        <time>2019-09-04T20:06:45Z</time>
      </trkpt>
      <trkpt lat="43.87296" lon="5.70261">
        <ele>460</ele>
        <time>2019-09-04T20:06:57Z</time>
      </trkpt>
      <trkpt lat="43.87279" lon="5.70255">
        <ele>460</ele>
        <time>2019-09-04T20:07:01Z</time>
      </trkpt>
      <trkpt lat="43.87239" lon="5.70252">
        <ele>459</ele>
        <time>2019-09-04T20:07:11Z</time>
      </trkpt>
      <trkpt lat="43.87217" lon="5.70245">
        <ele>458</ele>
        <time>2019-09-04T20:07:16Z</time>
      </trkpt>
      <trkpt lat="43.87207" lon="5.70239">
        <ele>458</ele>
        <time>2019-09-04T20:07:19Z</time>
      </trkpt>
      <trkpt lat="43.87191" lon="5.70222">
        <ele>458</ele>
        <time>2019-09-04T20:07:23Z</time>
      </trkpt>
      <trkpt lat="43.87183" lon="5.70164">
        <ele>458</ele>
        <time>2019-09-04T20:07:33Z</time>
      </trkpt>
      <trkpt lat="43.87167" lon="5.70157">
        <ele>457</ele>
        <time>2019-09-04T20:07:37Z</time>
      </trkpt>
      <trkpt lat="43.87156" lon="5.70158">
        <ele>457</ele>
        <time>2019-09-04T20:07:40Z</time>
      </trkpt>
      <trkpt lat="43.87149" lon="5.70164">
        <ele>456</ele>
        <time>2019-09-04T20:07:42Z</time>
      </trkpt>
      <trkpt lat="43.87143" lon="5.70173">
        <ele>456</ele>
        <time>2019-09-04T20:07:44Z</time>
      </trkpt>
      <trkpt lat="43.87129" lon="5.70209">
        <ele>455</ele>
        <time>2019-09-04T20:07:51Z</time>
      </trkpt>
      <trkpt lat="43.87123" lon="5.70218">
        <ele>455</ele>
        <time>2019-09-04T20:07:53Z</time>
      </trkpt>
      <trkpt lat="43.87115" lon="5.70224">
        <ele>454</ele>
        <time>2019-09-04T20:07:55Z</time>
      </trkpt>
      <trkpt lat="43.87091" lon="5.70229">
        <ele>454</ele>
        <time>2019-09-04T20:08:00Z</time>
      </trkpt>
      <trkpt lat="43.87068" lon="5.70219">
        <ele>454</ele>
        <time>2019-09-04T20:08:06Z</time>
      </trkpt>
      <trkpt lat="43.87058" lon="5.70212">
        <ele>455</ele>
        <time>2019-09-04T20:08:09Z</time>
      </trkpt>
      <trkpt lat="43.87031" lon="5.70177">
        <ele>456</ele>
        <time>2019-09-04T20:08:17Z</time>
      </trkpt>
      <trkpt lat="43.87012" lon="5.70161">
        <ele>458</ele>
        <time>2019-09-04T20:08:22Z</time>
      </trkpt>
      <trkpt lat="43.86985" lon="5.70156">
        <ele>459</ele>
        <time>2019-09-04T20:08:29Z</time>
      </trkpt>
      <trkpt lat="43.86949" lon="5.70145">
        <ele>461</ele>
        <time>2019-09-04T20:08:37Z</time>
      </trkpt>
      <trkpt lat="43.86881" lon="5.70099">
        <ele>464</ele>
        <time>2019-09-04T20:08:55Z</time>
      </trkpt>
      <trkpt lat="43.86871" lon="5.70096">
        <ele>464</ele>
        <time>2019-09-04T20:08:57Z</time>
      </trkpt>
      <trkpt lat="43.86829" lon="5.70094">
        <ele>465</ele>
        <time>2019-09-04T20:09:07Z</time>
      </trkpt>
      <trkpt lat="43.86793" lon="5.70096">
        <ele>467</ele>
        <time>2019-09-04T20:09:16Z</time>
      </trkpt>
      <trkpt lat="43.86617" lon="5.70153">
        <ele>474</ele>
        <time>2019-09-04T20:09:58Z</time>
      </trkpt>
      <trkpt lat="43.86594" lon="5.70157">
        <ele>475</ele>
        <time>2019-09-04T20:10:03Z</time>
      </trkpt>
      <trkpt lat="43.86503" lon="5.70164">
        <ele>479</ele>
        <time>2019-09-04T20:10:25Z</time>
      </trkpt>
      <trkpt lat="43.86411" lon="5.70184">
        <ele>485</ele>
        <time>2019-09-04T20:10:46Z</time>
      </trkpt>
      <trkpt lat="43.8637" lon="5.70186">
        <ele>489</ele>
        <time>2019-09-04T20:10:56Z</time>
      </trkpt>
      <trkpt lat="43.86332" lon="5.70184">
        <ele>492</ele>
        <time>2019-09-04T20:11:05Z</time>
      </trkpt>
      <trkpt lat="43.86314" lon="5.7018">
        <ele>493</ele>
        <time>2019-09-04T20:11:09Z</time>
      </trkpt>
      <trkpt lat="43.86234" lon="5.70148">
        <ele>498</ele>
        <time>2019-09-04T20:11:29Z</time>
      </trkpt>
      <trkpt lat="43.86204" lon="5.70129">
        <ele>500</ele>
        <time>2019-09-04T20:11:36Z</time>
      </trkpt>
      <trkpt lat="43.86172" lon="5.70098">
        <ele>504</ele>
        <time>2019-09-04T20:11:45Z</time>
      </trkpt>
      <trkpt lat="43.86164" lon="5.70087">
        <ele>505</ele>
        <time>2019-09-04T20:11:48Z</time>
      </trkpt>
      <trkpt lat="43.86158" lon="5.70072">
        <ele>507</ele>
        <time>2019-09-04T20:11:51Z</time>
      </trkpt>
      <trkpt lat="43.86155" lon="5.70033">
        <ele>508</ele>
        <time>2019-09-04T20:11:57Z</time>
      </trkpt>
      <trkpt lat="43.86146" lon="5.69998">
        <ele>510</ele>
        <time>2019-09-04T20:12:04Z</time>
      </trkpt>
      <trkpt lat="43.86128" lon="5.70002">
        <ele>513</ele>
        <time>2019-09-04T20:12:08Z</time>
      </trkpt>
      <trkpt lat="43.86097" lon="5.70015">
        <ele>519</ele>
        <time>2019-09-04T20:12:16Z</time>
      </trkpt>
      <trkpt lat="43.86086" lon="5.70034">
        <ele>521</ele>
        <time>2019-09-04T20:12:20Z</time>
      </trkpt>
      <trkpt lat="43.86046" lon="5.70054">
        <ele>532</ele>
        <time>2019-09-04T20:12:30Z</time>
      </trkpt>
      <trkpt lat="43.86023" lon="5.70084">
        <ele>540</ele>
        <time>2019-09-04T20:12:37Z</time>
      </trkpt>
      <trkpt lat="43.86012" lon="5.7009">
        <ele>543</ele>
        <time>2019-09-04T20:12:40Z</time>
      </trkpt>
      <trkpt lat="43.86004" lon="5.70101">
        <ele>546</ele>
        <time>2019-09-04T20:12:42Z</time>
      </trkpt>
      <trkpt lat="43.86001" lon="5.70121">
        <ele>546</ele>
        <time>2019-09-04T20:12:46Z</time>
      </trkpt>
      <trkpt lat="43.85982" lon="5.70184">
        <ele>546</ele>
        <time>2019-09-04T20:12:57Z</time>
      </trkpt>
      <trkpt lat="43.85968" lon="5.70201">
        <ele>544</ele>
        <time>2019-09-04T20:13:02Z</time>
      </trkpt>
      <trkpt lat="43.85958" lon="5.70202">
        <ele>545</ele>
        <time>2019-09-04T20:13:04Z</time>
      </trkpt>
      <trkpt lat="43.85919" lon="5.70135">
        <ele>562</ele>
        <time>2019-09-04T20:13:18Z</time>
      </trkpt>
      <trkpt lat="43.85909" lon="5.70125">
        <ele>564</ele>
        <time>2019-09-04T20:13:21Z</time>
      </trkpt>
      <trkpt lat="43.85891" lon="5.70115">
        <ele>568</ele>
        <time>2019-09-04T20:13:26Z</time>
      </trkpt>
      <trkpt lat="43.85881" lon="5.70104">
        <ele>571</ele>
        <time>2019-09-04T20:13:29Z</time>
      </trkpt>
      <trkpt lat="43.85865" lon="5.70105">
        <ele>573</ele>
        <time>2019-09-04T20:13:33Z</time>
      </trkpt>
      <trkpt lat="43.85838" lon="5.70118">
        <ele>575</ele>
        <time>2019-09-04T20:13:39Z</time>
      </trkpt>
      <trkpt lat="43.85828" lon="5.7012">
        <ele>576</ele>
        <time>2019-09-04T20:13:42Z</time>
      </trkpt>
      <trkpt lat="43.85822" lon="5.70128">
        <ele>576</ele>
        <time>2019-09-04T20:13:44Z</time>
      </trkpt>
      <trkpt lat="43.85816" lon="5.70144">
        <ele>575</ele>
        <time>2019-09-04T20:13:47Z</time>
      </trkpt>
      <trkpt lat="43.85815" lon="5.70207">
        <ele>570</ele>
        <time>2019-09-04T20:13:57Z</time>
      </trkpt>
      <trkpt lat="43.85773" lon="5.70326">
        <ele>576</ele>
        <time>2019-09-04T20:14:20Z</time>
      </trkpt>
      <trkpt lat="43.85755" lon="5.7036">
        <ele>580</ele>
        <time>2019-09-04T20:14:27Z</time>
      </trkpt>
      <trkpt lat="43.85746" lon="5.70371">
        <ele>581</ele>
        <time>2019-09-04T20:14:29Z</time>
      </trkpt>
      <trkpt lat="43.85709" lon="5.70399">
        <ele>583</ele>
        <time>2019-09-04T20:14:39Z</time>
      </trkpt>
      <trkpt lat="43.85714" lon="5.70386">
        <ele>583</ele>
        <time>2019-09-04T20:14:42Z</time>
      </trkpt>
      <trkpt lat="43.85735" lon="5.70354">
        <ele>583</ele>
        <time>2019-09-04T20:14:49Z</time>
      </trkpt>
      <trkpt lat="43.85746" lon="5.70325">
        <ele>583</ele>
        <time>2019-09-04T20:14:55Z</time>
      </trkpt>
      <trkpt lat="43.85755" lon="5.70292">
        <ele>584</ele>
        <time>2019-09-04T20:15:00Z</time>
      </trkpt>
      <trkpt lat="43.85758" lon="5.7027">
        <ele>585</ele>
        <time>2019-09-04T20:15:04Z</time>
      </trkpt>
      <trkpt lat="43.85759" lon="5.70233">
        <ele>586</ele>
        <time>2019-09-04T20:15:10Z</time>
      </trkpt>
      <trkpt lat="43.85757" lon="5.70204">
        <ele>587</ele>
        <time>2019-09-04T20:15:15Z</time>
      </trkpt>
      <trkpt lat="43.85738" lon="5.70164">
        <ele>591</ele>
        <time>2019-09-04T20:15:23Z</time>
      </trkpt>
      <trkpt lat="43.8573" lon="5.70136">
        <ele>592</ele>
        <time>2019-09-04T20:15:29Z</time>
      </trkpt>
      <trkpt lat="43.85723" lon="5.70121">
        <ele>593</ele>
        <time>2019-09-04T20:15:32Z</time>
      </trkpt>
      <trkpt lat="43.85712" lon="5.70107">
        <ele>594</ele>
        <time>2019-09-04T20:15:35Z</time>
      </trkpt>
      <trkpt lat="43.85695" lon="5.70094">
        <ele>595</ele>
        <time>2019-09-04T20:15:40Z</time>
      </trkpt>
      <trkpt lat="43.8561" lon="5.70071">
        <ele>603</ele>
        <time>2019-09-04T20:16:00Z</time>
      </trkpt>
      <trkpt lat="43.85556" lon="5.70065">
        <ele>609</ele>
        <time>2019-09-04T20:16:12Z</time>
      </trkpt>
      <trkpt lat="43.85515" lon="5.70054">
        <ele>613</ele>
        <time>2019-09-04T20:16:22Z</time>
      </trkpt>
      <trkpt lat="43.85402" lon="5.70052">
        <ele>622</ele>
        <time>2019-09-04T20:16:49Z</time>
      </trkpt>
      <trkpt lat="43.85377" lon="5.70049">
        <ele>623</ele>
        <time>2019-09-04T20:16:54Z</time>
      </trkpt>
      <trkpt lat="43.8534" lon="5.70036">
        <ele>624</ele>
        <time>2019-09-04T20:17:03Z</time>
      </trkpt>
      <trkpt lat="43.85322" lon="5.70027">
        <ele>625</ele>
        <time>2019-09-04T20:17:08Z</time>
      </trkpt>
      <trkpt lat="43.85316" lon="5.70032">
        <ele>625</ele>
        <time>2019-09-04T20:17:09Z</time>
      </trkpt>
      <trkpt lat="43.853" lon="5.70058">
        <ele>626</ele>
        <time>2019-09-04T20:17:15Z</time>
      </trkpt>
      <trkpt lat="43.85271" lon="5.70167">
        <ele>624</ele>
        <time>2019-09-04T20:17:35Z</time>
      </trkpt>
      <trkpt lat="43.85266" lon="5.70179">
        <ele>623</ele>
        <time>2019-09-04T20:17:37Z</time>
      </trkpt>
      <trkpt lat="43.85256" lon="5.70188">
        <ele>622</ele>
        <time>2019-09-04T20:17:40Z</time>
      </trkpt>
      <trkpt lat="43.85243" lon="5.70194">
        <ele>621</ele>
        <time>2019-09-04T20:17:43Z</time>
      </trkpt>
      <trkpt lat="43.85227" lon="5.70194">
        <ele>622</ele>
        <time>2019-09-04T20:17:47Z</time>
      </trkpt>
      <trkpt lat="43.85204" lon="5.70185">
        <ele>623</ele>
        <time>2019-09-04T20:17:52Z</time>
      </trkpt>
      <trkpt lat="43.85189" lon="5.70183">
        <ele>624</ele>
        <time>2019-09-04T20:17:56Z</time>
      </trkpt>
      <trkpt lat="43.85163" lon="5.70276">
        <ele>621</ele>
        <time>2019-09-04T20:18:13Z</time>
      </trkpt>
      <trkpt lat="43.85155" lon="5.70313">
        <ele>619</ele>
        <time>2019-09-04T20:18:19Z</time>
      </trkpt>
      <trkpt lat="43.85141" lon="5.70353">
        <ele>618</ele>
        <time>2019-09-04T20:18:27Z</time>
      </trkpt>
      <trkpt lat="43.85135" lon="5.70363">
        <ele>619</ele>
        <time>2019-09-04T20:18:29Z</time>
      </trkpt>
      <trkpt lat="43.85133" lon="5.70373">
        <ele>619</ele>
        <time>2019-09-04T20:18:31Z</time>
      </trkpt>
      <trkpt lat="43.85135" lon="5.70385">
        <ele>618</ele>
        <time>2019-09-04T20:18:33Z</time>
      </trkpt>
      <trkpt lat="43.85224" lon="5.70518">
        <ele>614</ele>
        <time>2019-09-04T20:19:03Z</time>
      </trkpt>
      <trkpt lat="43.85232" lon="5.70526">
        <ele>614</ele>
        <time>2019-09-04T20:19:06Z</time>
      </trkpt>
      <trkpt lat="43.85294" lon="5.70534">
        <ele>610</ele>
        <time>2019-09-04T20:19:20Z</time>
      </trkpt>
      <trkpt lat="43.85311" lon="5.70543">
        <ele>609</ele>
        <time>2019-09-04T20:19:24Z</time>
      </trkpt>
      <trkpt lat="43.85319" lon="5.70591">
        <ele>611</ele>
        <time>2019-09-04T20:19:33Z</time>
      </trkpt>
      <trkpt lat="43.85323" lon="5.70602">
        <ele>612</ele>
        <time>2019-09-04T20:19:35Z</time>
      </trkpt>
      <trkpt lat="43.85341" lon="5.70615">
        <ele>612</ele>
        <time>2019-09-04T20:19:39Z</time>
      </trkpt>
      <trkpt lat="43.85351" lon="5.70628">
        <ele>613</ele>
        <time>2019-09-04T20:19:43Z</time>
      </trkpt>
      <trkpt lat="43.85309" lon="5.70628">
        <ele>617</ele>
        <time>2019-09-04T20:19:53Z</time>
      </trkpt>
      <trkpt lat="43.85288" lon="5.70632">
        <ele>619</ele>
        <time>2019-09-04T20:19:57Z</time>
      </trkpt>
      <trkpt lat="43.8528" lon="5.70635">
        <ele>620</ele>
        <time>2019-09-04T20:19:59Z</time>
      </trkpt>
      <trkpt lat="43.8527" lon="5.70647">
        <ele>623</ele>
        <time>2019-09-04T20:20:02Z</time>
      </trkpt>
      <trkpt lat="43.85258" lon="5.70647">
        <ele>624</ele>
        <time>2019-09-04T20:20:05Z</time>
      </trkpt>
      <trkpt lat="43.85232" lon="5.70638">
        <ele>626</ele>
        <time>2019-09-04T20:20:12Z</time>
      </trkpt>
      <trkpt lat="43.85206" lon="5.70623">
        <ele>627</ele>
        <time>2019-09-04T20:20:18Z</time>
      </trkpt>
      <trkpt lat="43.85195" lon="5.70622">
        <ele>628</ele>
        <time>2019-09-04T20:20:21Z</time>
      </trkpt>
      <trkpt lat="43.85164" lon="5.70624">
        <ele>632</ele>
        <time>2019-09-04T20:20:28Z</time>
      </trkpt>
      <trkpt lat="43.85109" lon="5.70632">
        <ele>638</ele>
        <time>2019-09-04T20:20:41Z</time>
      </trkpt>
      <trkpt lat="43.85078" lon="5.70642">
        <ele>643</ele>
        <time>2019-09-04T20:20:48Z</time>
      </trkpt>
      <trkpt lat="43.85067" lon="5.70642">
        <ele>644</ele>
        <time>2019-09-04T20:20:51Z</time>
      </trkpt>
      <trkpt lat="43.85002" lon="5.70608">
        <ele>644</ele>
        <time>2019-09-04T20:21:07Z</time>
      </trkpt>
      <trkpt lat="43.84967" lon="5.70598">
        <ele>647</ele>
        <time>2019-09-04T20:21:15Z</time>
      </trkpt>
      <trkpt lat="43.84909" lon="5.70558">
        <ele>649</ele>
        <time>2019-09-04T20:21:31Z</time>
      </trkpt>
      <trkpt lat="43.84882" lon="5.7055">
        <ele>654</ele>
        <time>2019-09-04T20:21:37Z</time>
      </trkpt>
      <trkpt lat="43.84862" lon="5.70535">
        <ele>655</ele>
        <time>2019-09-04T20:21:42Z</time>
      </trkpt>
      <trkpt lat="43.84837" lon="5.705">
        <ele>653</ele>
        <time>2019-09-04T20:21:51Z</time>
      </trkpt>
      <trkpt lat="43.84808" lon="5.70476">
        <ele>659</ele>
        <time>2019-09-04T20:21:58Z</time>
      </trkpt>
      <trkpt lat="43.8479" lon="5.70457">
        <ele>662</ele>
        <time>2019-09-04T20:22:04Z</time>
      </trkpt>
      <trkpt lat="43.84758" lon="5.70418">
        <ele>664</ele>
        <time>2019-09-04T20:22:14Z</time>
      </trkpt>
      <trkpt lat="43.84714" lon="5.70355">
        <ele>671</ele>
        <time>2019-09-04T20:22:28Z</time>
      </trkpt>
      <trkpt lat="43.84648" lon="5.70202">
        <ele>671</ele>
        <time>2019-09-04T20:22:59Z</time>
      </trkpt>
      <trkpt lat="43.84619" lon="5.70106">
        <ele>667</ele>
        <time>2019-09-04T20:23:16Z</time>
      </trkpt>
      <trkpt lat="43.84616" lon="5.7009">
        <ele>666</ele>
        <time>2019-09-04T20:23:19Z</time>
      </trkpt>
      <trkpt lat="43.84615" lon="5.70054">
        <ele>663</ele>
        <time>2019-09-04T20:23:25Z</time>
      </trkpt>
      <trkpt lat="43.846" lon="5.69947">
        <ele>657</ele>
        <time>2019-09-04T20:23:43Z</time>
      </trkpt>
      <trkpt lat="43.84586" lon="5.69877">
        <ele>650</ele>
        <time>2019-09-04T20:23:55Z</time>
      </trkpt>
      <trkpt lat="43.84579" lon="5.69858">
        <ele>649</ele>
        <time>2019-09-04T20:23:59Z</time>
      </trkpt>
      <trkpt lat="43.84543" lon="5.69811">
        <ele>650</ele>
        <time>2019-09-04T20:24:11Z</time>
      </trkpt>
      <trkpt lat="43.84533" lon="5.698">
        <ele>650</ele>
        <time>2019-09-04T20:24:14Z</time>
      </trkpt>
      <trkpt lat="43.84516" lon="5.69787">
        <ele>651</ele>
        <time>2019-09-04T20:24:18Z</time>
      </trkpt>
      <trkpt lat="43.84497" lon="5.69764">
        <ele>648</ele>
        <time>2019-09-04T20:24:24Z</time>
      </trkpt>
      <trkpt lat="43.84455" lon="5.69749">
        <ele>646</ele>
        <time>2019-09-04T20:24:34Z</time>
      </trkpt>
      <trkpt lat="43.84441" lon="5.69751">
        <ele>647</ele>
        <time>2019-09-04T20:24:37Z</time>
      </trkpt>
      <trkpt lat="43.84424" lon="5.69745">
        <ele>647</ele>
        <time>2019-09-04T20:24:42Z</time>
      </trkpt>
      <trkpt lat="43.84422" lon="5.69737">
        <ele>647</ele>
        <time>2019-09-04T20:24:43Z</time>
      </trkpt>
      <trkpt lat="43.84413" lon="5.69734">
        <ele>646</ele>
        <time>2019-09-04T20:24:45Z</time>
      </trkpt>
      <trkpt lat="43.84408" lon="5.69725">
        <ele>645</ele>
        <time>2019-09-04T20:24:47Z</time>
      </trkpt>
      <trkpt lat="43.84404" lon="5.6968">
        <ele>644</ele>
        <time>2019-09-04T20:24:55Z</time>
      </trkpt>
      <trkpt lat="43.84381" lon="5.69614">
        <ele>641</ele>
        <time>2019-09-04T20:25:07Z</time>
      </trkpt>
      <trkpt lat="43.84319" lon="5.69469">
        <ele>644</ele>
        <time>2019-09-04T20:25:35Z</time>
      </trkpt>
      <trkpt lat="43.84286" lon="5.69382">
        <ele>645</ele>
        <time>2019-09-04T20:25:52Z</time>
      </trkpt>
      <trkpt lat="43.84266" lon="5.69341">
        <ele>645</ele>
        <time>2019-09-04T20:26:00Z</time>
      </trkpt>
      <trkpt lat="43.84259" lon="5.69331">
        <ele>645</ele>
        <time>2019-09-04T20:26:03Z</time>
      </trkpt>
      <trkpt lat="43.84208" lon="5.693">
        <ele>644</ele>
        <time>2019-09-04T20:26:16Z</time>
      </trkpt>
      <trkpt lat="43.84199" lon="5.6929">
        <ele>644</ele>
        <time>2019-09-04T20:26:18Z</time>
      </trkpt>
      <trkpt lat="43.84177" lon="5.6926">
        <ele>645</ele>
        <time>2019-09-04T20:26:26Z</time>
      </trkpt>
      <trkpt lat="43.84117" lon="5.69166">
        <ele>648</ele>
        <time>2019-09-04T20:26:47Z</time>
      </trkpt>
      <trkpt lat="43.84089" lon="5.69129">
        <ele>649</ele>
        <time>2019-09-04T20:26:56Z</time>
      </trkpt>
      <trkpt lat="43.84075" lon="5.69096">
        <ele>648</ele>
        <time>2019-09-04T20:27:02Z</time>
      </trkpt>
      <trkpt lat="43.84081" lon="5.69059">
        <ele>648</ele>
        <time>2019-09-04T20:27:09Z</time>
      </trkpt>
      <trkpt lat="43.84094" lon="5.69016">
        <ele>649</ele>
        <time>2019-09-04T20:27:16Z</time>
      </trkpt>
      <trkpt lat="43.841" lon="5.68985">
        <ele>649</ele>
        <time>2019-09-04T20:27:22Z</time>
      </trkpt>
      <trkpt lat="43.84109" lon="5.68905">
        <ele>649</ele>
        <time>2019-09-04T20:27:35Z</time>
      </trkpt>
      <trkpt lat="43.84122" lon="5.6885">
        <ele>650</ele>
        <time>2019-09-04T20:27:45Z</time>
      </trkpt>
      <trkpt lat="43.84132" lon="5.68794">
        <ele>651</ele>
        <time>2019-09-04T20:27:55Z</time>
      </trkpt>
      <trkpt lat="43.84123" lon="5.6861">
        <ele>659</ele>
        <time>2019-09-04T20:28:26Z</time>
      </trkpt>
      <trkpt lat="43.84155" lon="5.68467">
        <ele>667</ele>
        <time>2019-09-04T20:28:51Z</time>
      </trkpt>
      <trkpt lat="43.84173" lon="5.68408">
        <ele>672</ele>
        <time>2019-09-04T20:29:02Z</time>
      </trkpt>
      <trkpt lat="43.84182" lon="5.68386">
        <ele>672</ele>
        <time>2019-09-04T20:29:06Z</time>
      </trkpt>
      <trkpt lat="43.84186" lon="5.68366">
        <ele>672</ele>
        <time>2019-09-04T20:29:10Z</time>
      </trkpt>
      <trkpt lat="43.84197" lon="5.68362">
        <ele>672</ele>
        <time>2019-09-04T20:29:12Z</time>
      </trkpt>
      <trkpt lat="43.84211" lon="5.68348">
        <ele>673</ele>
        <time>2019-09-04T20:29:16Z</time>
      </trkpt>
      <trkpt lat="43.8422" lon="5.68345">
        <ele>674</ele>
        <time>2019-09-04T20:29:19Z</time>
      </trkpt>
      <trkpt lat="43.84227" lon="5.68346">
        <ele>674</ele>
        <time>2019-09-04T20:29:20Z</time>
      </trkpt>
      <trkpt lat="43.84261" lon="5.68363">
        <ele>675</ele>
        <time>2019-09-04T20:29:29Z</time>
      </trkpt>
      <trkpt lat="43.84275" lon="5.68364">
        <ele>676</ele>
        <time>2019-09-04T20:29:32Z</time>
      </trkpt>
      <trkpt lat="43.84284" lon="5.68368">
        <ele>676</ele>
        <time>2019-09-04T20:29:34Z</time>
      </trkpt>
      <trkpt lat="43.8429" lon="5.68374">
        <ele>675</ele>
        <time>2019-09-04T20:29:36Z</time>
      </trkpt>
      <trkpt lat="43.84367" lon="5.68364">
        <ele>678</ele>
        <time>2019-09-04T20:29:54Z</time>
      </trkpt>
      <trkpt lat="43.8438" lon="5.68356">
        <ele>679</ele>
        <time>2019-09-04T20:29:57Z</time>
      </trkpt>
      <trkpt lat="43.84393" lon="5.6834">
        <ele>681</ele>
        <time>2019-09-04T20:30:01Z</time>
      </trkpt>
      <trkpt lat="43.84399" lon="5.68326">
        <ele>681</ele>
        <time>2019-09-04T20:30:04Z</time>
      </trkpt>
      <trkpt lat="43.84415" lon="5.68327">
        <ele>681</ele>
        <time>2019-09-04T20:30:08Z</time>
      </trkpt>
      <trkpt lat="43.84433" lon="5.68299">
        <ele>676</ele>
        <time>2019-09-04T20:30:14Z</time>
      </trkpt>
      <trkpt lat="43.84461" lon="5.68286">
        <ele>668</ele>
        <time>2019-09-04T20:30:21Z</time>
      </trkpt>
      <trkpt lat="43.84474" lon="5.6827">
        <ele>665</ele>
        <time>2019-09-04T20:30:25Z</time>
      </trkpt>
      <trkpt lat="43.84504" lon="5.68253">
        <ele>657</ele>
        <time>2019-09-04T20:30:33Z</time>
      </trkpt>
      <trkpt lat="43.84512" lon="5.68237">
        <ele>655</ele>
        <time>2019-09-04T20:30:36Z</time>
      </trkpt>
      <trkpt lat="43.84519" lon="5.6823">
        <ele>653</ele>
        <time>2019-09-04T20:30:38Z</time>
      </trkpt>
      <trkpt lat="43.84545" lon="5.68228">
        <ele>649</ele>
        <time>2019-09-04T20:30:44Z</time>
      </trkpt>
      <trkpt lat="43.84554" lon="5.68231">
        <ele>647</ele>
        <time>2019-09-04T20:30:46Z</time>
      </trkpt>
      <trkpt lat="43.84566" lon="5.68239">
        <ele>645</ele>
        <time>2019-09-04T20:30:49Z</time>
      </trkpt>
      <trkpt lat="43.84578" lon="5.68251">
        <ele>643</ele>
        <time>2019-09-04T20:30:53Z</time>
      </trkpt>
      <trkpt lat="43.84584" lon="5.6824">
        <ele>642</ele>
        <time>2019-09-04T20:30:55Z</time>
      </trkpt>
      <trkpt lat="43.84598" lon="5.68143">
        <ele>641</ele>
        <time>2019-09-04T20:31:12Z</time>
      </trkpt>
      <trkpt lat="43.84613" lon="5.67992">
        <ele>631</ele>
        <time>2019-09-04T20:31:37Z</time>
      </trkpt>
      <trkpt lat="43.84623" lon="5.67956">
        <ele>631</ele>
        <time>2019-09-04T20:31:44Z</time>
      </trkpt>
      <trkpt lat="43.84622" lon="5.67896">
        <ele>627</ele>
        <time>2019-09-04T20:31:54Z</time>
      </trkpt>
      <trkpt lat="43.84627" lon="5.67814">
        <ele>623</ele>
        <time>2019-09-04T20:32:08Z</time>
      </trkpt>
      <trkpt lat="43.84632" lon="5.67804">
        <ele>623</ele>
        <time>2019-09-04T20:32:10Z</time>
      </trkpt>
      <trkpt lat="43.8464" lon="5.67798">
        <ele>624</ele>
        <time>2019-09-04T20:32:12Z</time>
      </trkpt>
      <trkpt lat="43.84655" lon="5.67744">
        <ele>622</ele>
        <time>2019-09-04T20:32:22Z</time>
      </trkpt>
      <trkpt lat="43.84666" lon="5.6767">
        <ele>616</ele>
        <time>2019-09-04T20:32:35Z</time>
      </trkpt>
      <trkpt lat="43.84675" lon="5.67647">
        <ele>616</ele>
        <time>2019-09-04T20:32:39Z</time>
      </trkpt>
      <trkpt lat="43.84682" lon="5.67618">
        <ele>616</ele>
        <time>2019-09-04T20:32:44Z</time>
      </trkpt>
      <trkpt lat="43.8469" lon="5.67554">
        <ele>613</ele>
        <time>2019-09-04T20:32:55Z</time>
      </trkpt>
      <trkpt lat="43.847" lon="5.67521">
        <ele>612</ele>
        <time>2019-09-04T20:33:01Z</time>
      </trkpt>
      <trkpt lat="43.8473" lon="5.67449">
        <ele>612</ele>
        <time>2019-09-04T20:33:15Z</time>
      </trkpt>
      <trkpt lat="43.84733" lon="5.67334">
        <ele>611</ele>
        <time>2019-09-04T20:33:34Z</time>
      </trkpt>
      <trkpt lat="43.84731" lon="5.67303">
        <ele>611</ele>
        <time>2019-09-04T20:33:40Z</time>
      </trkpt>
      <trkpt lat="43.84735" lon="5.67269">
        <ele>612</ele>
        <time>2019-09-04T20:33:46Z</time>
      </trkpt>
      <trkpt lat="43.84734" lon="5.67235">
        <ele>611</ele>
        <time>2019-09-04T20:33:51Z</time>
      </trkpt>
      <trkpt lat="43.84736" lon="5.67216">
        <ele>611</ele>
        <time>2019-09-04T20:33:54Z</time>
      </trkpt>
      <trkpt lat="43.84748" lon="5.67186">
        <ele>614</ele>
        <time>2019-09-04T20:34:00Z</time>
      </trkpt>
      <trkpt lat="43.84754" lon="5.67157">
        <ele>614</ele>
        <time>2019-09-04T20:34:05Z</time>
      </trkpt>
      <trkpt lat="43.8476" lon="5.67087">
        <ele>612</ele>
        <time>2019-09-04T20:34:17Z</time>
      </trkpt>
      <trkpt lat="43.84756" lon="5.67007">
        <ele>606</ele>
        <time>2019-09-04T20:34:31Z</time>
      </trkpt>
      <trkpt lat="43.84759" lon="5.66987">
        <ele>604</ele>
        <time>2019-09-04T20:34:34Z</time>
      </trkpt>
      <trkpt lat="43.84782" lon="5.66915">
        <ele>601</ele>
        <time>2019-09-04T20:34:47Z</time>
      </trkpt>
      <trkpt lat="43.84784" lon="5.66899">
        <ele>600</ele>
        <time>2019-09-04T20:34:50Z</time>
      </trkpt>
      <trkpt lat="43.84785" lon="5.66874">
        <ele>599</ele>
        <time>2019-09-04T20:34:54Z</time>
      </trkpt>
      <trkpt lat="43.8477" lon="5.66789">
        <ele>600</ele>
        <time>2019-09-04T20:35:09Z</time>
      </trkpt>
      <trkpt lat="43.84761" lon="5.667">
        <ele>604</ele>
        <time>2019-09-04T20:35:24Z</time>
      </trkpt>
      <trkpt lat="43.84739" lon="5.66628">
        <ele>605</ele>
        <time>2019-09-04T20:35:37Z</time>
      </trkpt>
      <trkpt lat="43.84725" lon="5.66591">
        <ele>603</ele>
        <time>2019-09-04T20:35:44Z</time>
      </trkpt>
      <trkpt lat="43.84723" lon="5.66565">
        <ele>603</ele>
        <time>2019-09-04T20:35:49Z</time>
      </trkpt>
      <trkpt lat="43.84725" lon="5.66514">
        <ele>601</ele>
        <time>2019-09-04T20:35:57Z</time>
      </trkpt>
      <trkpt lat="43.84701" lon="5.66347">
        <ele>598</ele>
        <time>2019-09-04T20:36:26Z</time>
      </trkpt>
      <trkpt lat="43.84692" lon="5.66186">
        <ele>598</ele>
        <time>2019-09-04T20:36:53Z</time>
      </trkpt>
      <trkpt lat="43.84698" lon="5.66094">
        <ele>596</ele>
        <time>2019-09-04T20:37:09Z</time>
      </trkpt>
      <trkpt lat="43.84695" lon="5.66051">
        <ele>591</ele>
        <time>2019-09-04T20:37:16Z</time>
      </trkpt>
      <trkpt lat="43.84703" lon="5.66016">
        <ele>592</ele>
        <time>2019-09-04T20:37:22Z</time>
      </trkpt>
      <trkpt lat="43.84705" lon="5.65952">
        <ele>589</ele>
        <time>2019-09-04T20:37:33Z</time>
      </trkpt>
      <trkpt lat="43.84714" lon="5.65858">
        <ele>587</ele>
        <time>2019-09-04T20:37:49Z</time>
      </trkpt>
      <trkpt lat="43.8471" lon="5.65791">
        <ele>580</ele>
        <time>2019-09-04T20:38:00Z</time>
      </trkpt>
      <trkpt lat="43.84714" lon="5.65725">
        <ele>575</ele>
        <time>2019-09-04T20:38:12Z</time>
      </trkpt>
      <trkpt lat="43.84718" lon="5.65706">
        <ele>574</ele>
        <time>2019-09-04T20:38:15Z</time>
      </trkpt>
      <trkpt lat="43.84729" lon="5.65677">
        <ele>575</ele>
        <time>2019-09-04T20:38:20Z</time>
      </trkpt>
      <trkpt lat="43.84751" lon="5.65638">
        <ele>581</ele>
        <time>2019-09-04T20:38:29Z</time>
      </trkpt>
      <trkpt lat="43.8475" lon="5.65622">
        <ele>580</ele>
        <time>2019-09-04T20:38:31Z</time>
      </trkpt>
      <trkpt lat="43.84733" lon="5.65581">
        <ele>573</ele>
        <time>2019-09-04T20:38:39Z</time>
      </trkpt>
      <trkpt lat="43.84724" lon="5.65534">
        <ele>572</ele>
        <time>2019-09-04T20:38:48Z</time>
      </trkpt>
      <trkpt lat="43.84724" lon="5.65499">
        <ele>574</ele>
        <time>2019-09-04T20:38:54Z</time>
      </trkpt>
      <trkpt lat="43.84734" lon="5.6532">
        <ele>574</ele>
        <time>2019-09-04T20:39:24Z</time>
      </trkpt>
      <trkpt lat="43.84745" lon="5.65228">
        <ele>572</ele>
        <time>2019-09-04T20:39:39Z</time>
      </trkpt>
      <trkpt lat="43.8476" lon="5.65036">
        <ele>561</ele>
        <time>2019-09-04T20:40:12Z</time>
      </trkpt>
      <trkpt lat="43.84764" lon="5.65009">
        <ele>559</ele>
        <time>2019-09-04T20:40:17Z</time>
      </trkpt>
      <trkpt lat="43.84781" lon="5.6496">
        <ele>560</ele>
        <time>2019-09-04T20:40:26Z</time>
      </trkpt>
      <trkpt lat="43.84783" lon="5.64939">
        <ele>560</ele>
        <time>2019-09-04T20:40:29Z</time>
      </trkpt>
      <trkpt lat="43.84774" lon="5.64863">
        <ele>560</ele>
        <time>2019-09-04T20:40:42Z</time>
      </trkpt>
      <trkpt lat="43.84774" lon="5.64825">
        <ele>562</ele>
        <time>2019-09-04T20:40:49Z</time>
      </trkpt>
      <trkpt lat="43.84777" lon="5.64799">
        <ele>565</ele>
        <time>2019-09-04T20:40:53Z</time>
      </trkpt>
      <trkpt lat="43.84773" lon="5.64759">
        <ele>565</ele>
        <time>2019-09-04T20:41:00Z</time>
      </trkpt>
      <trkpt lat="43.84774" lon="5.64745">
        <ele>566</ele>
        <time>2019-09-04T20:41:02Z</time>
      </trkpt>
      <trkpt lat="43.84768" lon="5.64709">
        <ele>563</ele>
        <time>2019-09-04T20:41:09Z</time>
      </trkpt>
      <trkpt lat="43.84765" lon="5.64658">
        <ele>560</ele>
        <time>2019-09-04T20:41:17Z</time>
      </trkpt>
      <trkpt lat="43.84769" lon="5.64591">
        <ele>560</ele>
        <time>2019-09-04T20:41:29Z</time>
      </trkpt>
      <trkpt lat="43.84758" lon="5.64537">
        <ele>559</ele>
        <time>2019-09-04T20:41:38Z</time>
      </trkpt>
      <trkpt lat="43.84757" lon="5.64521">
        <ele>559</ele>
        <time>2019-09-04T20:41:41Z</time>
      </trkpt>
      <trkpt lat="43.84768" lon="5.64323">
        <ele>557</ele>
        <time>2019-09-04T20:42:14Z</time>
      </trkpt>
      <trkpt lat="43.84761" lon="5.64207">
        <ele>557</ele>
        <time>2019-09-04T20:42:34Z</time>
      </trkpt>
      <trkpt lat="43.84762" lon="5.64166">
        <ele>556</ele>
        <time>2019-09-04T20:42:41Z</time>
      </trkpt>
      <trkpt lat="43.84776" lon="5.64075">
        <ele>559</ele>
        <time>2019-09-04T20:42:56Z</time>
      </trkpt>
      <trkpt lat="43.84775" lon="5.64047">
        <ele>558</ele>
        <time>2019-09-04T20:43:01Z</time>
      </trkpt>
      <trkpt lat="43.8479" lon="5.63842">
        <ele>549</ele>
        <time>2019-09-04T20:43:36Z</time>
      </trkpt>
      <trkpt lat="43.84801" lon="5.63776">
        <ele>545</ele>
        <time>2019-09-04T20:43:47Z</time>
      </trkpt>
      <trkpt lat="43.8481" lon="5.63652">
        <ele>542</ele>
        <time>2019-09-04T20:44:08Z</time>
      </trkpt>
      <trkpt lat="43.84815" lon="5.63627">
        <ele>545</ele>
        <time>2019-09-04T20:44:12Z</time>
      </trkpt>
      <trkpt lat="43.84806" lon="5.63584">
        <ele>544</ele>
        <time>2019-09-04T20:44:20Z</time>
      </trkpt>
      <trkpt lat="43.84813" lon="5.6355">
        <ele>546</ele>
        <time>2019-09-04T20:44:26Z</time>
      </trkpt>
      <trkpt lat="43.84822" lon="5.63466">
        <ele>546</ele>
        <time>2019-09-04T20:44:40Z</time>
      </trkpt>
      <trkpt lat="43.84824" lon="5.63395">
        <ele>540</ele>
        <time>2019-09-04T20:44:52Z</time>
      </trkpt>
      <trkpt lat="43.84843" lon="5.63141">
        <ele>527</ele>
        <time>2019-09-04T20:45:35Z</time>
      </trkpt>
      <trkpt lat="43.84835" lon="5.63018">
        <ele>528</ele>
        <time>2019-09-04T20:45:56Z</time>
      </trkpt>
      <trkpt lat="43.84827" lon="5.62796">
        <ele>529</ele>
        <time>2019-09-04T20:46:33Z</time>
      </trkpt>
      <trkpt lat="43.84829" lon="5.62719">
        <ele>524</ele>
        <time>2019-09-04T20:46:46Z</time>
      </trkpt>
      <trkpt lat="43.84836" lon="5.62609">
        <ele>517</ele>
        <time>2019-09-04T20:47:05Z</time>
      </trkpt>
      <trkpt lat="43.84837" lon="5.6248">
        <ele>511</ele>
        <time>2019-09-04T20:47:27Z</time>
      </trkpt>
      <trkpt lat="43.84844" lon="5.62384">
        <ele>506</ele>
        <time>2019-09-04T20:47:43Z</time>
      </trkpt>
      <trkpt lat="43.84847" lon="5.62303">
        <ele>505</ele>
        <time>2019-09-04T20:47:57Z</time>
      </trkpt>
      <trkpt lat="43.84846" lon="5.62251">
        <ele>507</ele>
        <time>2019-09-04T20:48:05Z</time>
      </trkpt>
      <trkpt lat="43.84851" lon="5.62156">
        <ele>509</ele>
        <time>2019-09-04T20:48:22Z</time>
      </trkpt>
      <trkpt lat="43.84866" lon="5.62015">
        <ele>495</ele>
        <time>2019-09-04T20:48:46Z</time>
      </trkpt>
      <trkpt lat="43.84874" lon="5.61897">
        <ele>488</ele>
        <time>2019-09-04T20:49:05Z</time>
      </trkpt>
      <trkpt lat="43.84883" lon="5.61813">
        <ele>482</ele>
        <time>2019-09-04T20:49:20Z</time>
      </trkpt>
      <trkpt lat="43.84892" lon="5.61767">
        <ele>482</ele>
        <time>2019-09-04T20:49:28Z</time>
      </trkpt>
      <trkpt lat="43.84899" lon="5.61754">
        <ele>484</ele>
        <time>2019-09-04T20:49:31Z</time>
      </trkpt>
      <trkpt lat="43.849" lon="5.61734">
        <ele>484</ele>
        <time>2019-09-04T20:49:34Z</time>
      </trkpt>
      <trkpt lat="43.84906" lon="5.61714">
        <ele>486</ele>
        <time>2019-09-04T20:49:38Z</time>
      </trkpt>
      <trkpt lat="43.84917" lon="5.61694">
        <ele>490</ele>
        <time>2019-09-04T20:49:42Z</time>
      </trkpt>
      <trkpt lat="43.84932" lon="5.61674">
        <ele>490</ele>
        <time>2019-09-04T20:49:47Z</time>
      </trkpt>
      <trkpt lat="43.84944" lon="5.61663">
        <ele>489</ele>
        <time>2019-09-04T20:49:50Z</time>
      </trkpt>
      <trkpt lat="43.84947" lon="5.61655">
        <ele>489</ele>
        <time>2019-09-04T20:49:52Z</time>
      </trkpt>
      <trkpt lat="43.84956" lon="5.61604">
        <ele>486</ele>
        <time>2019-09-04T20:50:00Z</time>
      </trkpt>
      <trkpt lat="43.84967" lon="5.61567">
        <ele>483</ele>
        <time>2019-09-04T20:50:07Z</time>
      </trkpt>
      <trkpt lat="43.84977" lon="5.61521">
        <ele>477</ele>
        <time>2019-09-04T20:50:15Z</time>
      </trkpt>
      <trkpt lat="43.84983" lon="5.61479">
        <ele>476</ele>
        <time>2019-09-04T20:50:22Z</time>
      </trkpt>
      <trkpt lat="43.85005" lon="5.61448">
        <ele>475</ele>
        <time>2019-09-04T20:50:30Z</time>
      </trkpt>
      <trkpt lat="43.85056" lon="5.61438">
        <ele>458</ele>
        <time>2019-09-04T20:50:42Z</time>
      </trkpt>
      <trkpt lat="43.85066" lon="5.61418">
        <ele>455</ele>
        <time>2019-09-04T20:50:46Z</time>
      </trkpt>
      <trkpt lat="43.85096" lon="5.61314">
        <ele>450</ele>
        <time>2019-09-04T20:51:05Z</time>
      </trkpt>
      <trkpt lat="43.85104" lon="5.61262">
        <ele>446</ele>
        <time>2019-09-04T20:51:14Z</time>
      </trkpt>
      <trkpt lat="43.85113" lon="5.61161">
        <ele>439</ele>
        <time>2019-09-04T20:51:31Z</time>
      </trkpt>
      <trkpt lat="43.85122" lon="5.61121">
        <ele>436</ele>
        <time>2019-09-04T20:51:38Z</time>
      </trkpt>
      <trkpt lat="43.85145" lon="5.61041">
        <ele>431</ele>
        <time>2019-09-04T20:51:52Z</time>
      </trkpt>
      <trkpt lat="43.85152" lon="5.61003">
        <ele>429</ele>
        <time>2019-09-04T20:51:59Z</time>
      </trkpt>
      <trkpt lat="43.85159" lon="5.61002">
        <ele>426</ele>
        <time>2019-09-04T20:52:01Z</time>
      </trkpt>
      <trkpt lat="43.85167" lon="5.60936">
        <ele>427</ele>
        <time>2019-09-04T20:52:12Z</time>
      </trkpt>
      <trkpt lat="43.85173" lon="5.6091">
        <ele>426</ele>
        <time>2019-09-04T20:52:17Z</time>
      </trkpt>
      <trkpt lat="43.85186" lon="5.60882">
        <ele>424</ele>
        <time>2019-09-04T20:52:22Z</time>
      </trkpt>
      <trkpt lat="43.85195" lon="5.60841">
        <ele>423</ele>
        <time>2019-09-04T20:52:29Z</time>
      </trkpt>
      <trkpt lat="43.85205" lon="5.60821">
        <ele>419</ele>
        <time>2019-09-04T20:52:33Z</time>
      </trkpt>
      <trkpt lat="43.85216" lon="5.60775">
        <ele>415</ele>
        <time>2019-09-04T20:52:42Z</time>
      </trkpt>
      <trkpt lat="43.85237" lon="5.60709">
        <ele>409</ele>
        <time>2019-09-04T20:52:54Z</time>
      </trkpt>
      <trkpt lat="43.85246" lon="5.60688">
        <ele>407</ele>
        <time>2019-09-04T20:52:58Z</time>
      </trkpt>
      <trkpt lat="43.85263" lon="5.60659">
        <ele>405</ele>
        <time>2019-09-04T20:53:04Z</time>
      </trkpt>
      <trkpt lat="43.85268" lon="5.60644">
        <ele>404</ele>
        <time>2019-09-04T20:53:07Z</time>
      </trkpt>
      <trkpt lat="43.85291" lon="5.60519">
        <ele>399</ele>
        <time>2019-09-04T20:53:29Z</time>
      </trkpt>
      <trkpt lat="43.85338" lon="5.60304">
        <ele>389</ele>
        <time>2019-09-04T20:54:06Z</time>
      </trkpt>
      <trkpt lat="43.85336" lon="5.60276">
        <ele>387</ele>
        <time>2019-09-04T20:54:11Z</time>
      </trkpt>
      <trkpt lat="43.85299" lon="5.602">
        <ele>385</ele>
        <time>2019-09-04T20:54:27Z</time>
      </trkpt>
      <trkpt lat="43.85294" lon="5.60183">
        <ele>384</ele>
        <time>2019-09-04T20:54:30Z</time>
      </trkpt>
      <trkpt lat="43.85293" lon="5.6017">
        <ele>384</ele>
        <time>2019-09-04T20:54:32Z</time>
      </trkpt>
      <trkpt lat="43.85294" lon="5.60151">
        <ele>382</ele>
        <time>2019-09-04T20:54:35Z</time>
      </trkpt>
      <trkpt lat="43.85302" lon="5.60124">
        <ele>379</ele>
        <time>2019-09-04T20:54:40Z</time>
      </trkpt>
      <trkpt lat="43.85307" lon="5.60091">
        <ele>376</ele>
        <time>2019-09-04T20:54:46Z</time>
      </trkpt>
      <trkpt lat="43.853" lon="5.60035">
        <ele>376</ele>
        <time>2019-09-04T20:54:55Z</time>
      </trkpt>
      <trkpt lat="43.85301" lon="5.60015">
        <ele>376</ele>
        <time>2019-09-04T20:54:59Z</time>
      </trkpt>
      <trkpt lat="43.85312" lon="5.59988">
        <ele>376</ele>
        <time>2019-09-04T20:55:04Z</time>
      </trkpt>
      <trkpt lat="43.85314" lon="5.59943">
        <ele>380</ele>
        <time>2019-09-04T20:55:12Z</time>
      </trkpt>
      <trkpt lat="43.85318" lon="5.59916">
        <ele>381</ele>
        <time>2019-09-04T20:55:16Z</time>
      </trkpt>
      <trkpt lat="43.85318" lon="5.59902">
        <ele>382</ele>
        <time>2019-09-04T20:55:19Z</time>
      </trkpt>
      <trkpt lat="43.85315" lon="5.59891">
        <ele>384</ele>
        <time>2019-09-04T20:55:21Z</time>
      </trkpt>
      <trkpt lat="43.85299" lon="5.5991">
        <ele>385</ele>
        <time>2019-09-04T20:55:25Z</time>
      </trkpt>
      <trkpt lat="43.85293" lon="5.59909">
        <ele>387</ele>
        <time>2019-09-04T20:55:27Z</time>
      </trkpt>
      <trkpt lat="43.85271" lon="5.59946">
        <ele>386</ele>
        <time>2019-09-04T20:55:35Z</time>
      </trkpt>
      <trkpt lat="43.85246" lon="5.59968">
        <ele>386</ele>
        <time>2019-09-04T20:55:42Z</time>
      </trkpt>
      <trkpt lat="43.85198" lon="5.59967">
        <ele>388</ele>
        <time>2019-09-04T20:55:53Z</time>
      </trkpt>
      <trkpt lat="43.85184" lon="5.5997">
        <ele>387</ele>
        <time>2019-09-04T20:55:56Z</time>
      </trkpt>
      <trkpt lat="43.8515" lon="5.59985">
        <ele>385</ele>
        <time>2019-09-04T20:56:05Z</time>
      </trkpt>
      <trkpt lat="43.85124" lon="5.59989">
        <ele>384</ele>
        <time>2019-09-04T20:56:11Z</time>
      </trkpt>
      <trkpt lat="43.85102" lon="5.59964">
        <ele>390</ele>
        <time>2019-09-04T20:56:17Z</time>
      </trkpt>
      <trkpt lat="43.85089" lon="5.5996">
        <ele>391</ele>
        <time>2019-09-04T20:56:21Z</time>
      </trkpt>
      <trkpt lat="43.85083" lon="5.59951">
        <ele>393</ele>
        <time>2019-09-04T20:56:23Z</time>
      </trkpt>
      <trkpt lat="43.8507" lon="5.59947">
        <ele>394</ele>
        <time>2019-09-04T20:56:26Z</time>
      </trkpt>
      <trkpt lat="43.85056" lon="5.59951">
        <ele>393</ele>
        <time>2019-09-04T20:56:29Z</time>
      </trkpt>
      <trkpt lat="43.85045" lon="5.59935">
        <ele>398</ele>
        <time>2019-09-04T20:56:33Z</time>
      </trkpt>
      <trkpt lat="43.85043" lon="5.59889">
        <ele>409</ele>
        <time>2019-09-04T20:56:41Z</time>
      </trkpt>
      <trkpt lat="43.8503" lon="5.59878">
        <ele>413</ele>
        <time>2019-09-04T20:56:44Z</time>
      </trkpt>
      <trkpt lat="43.85026" lon="5.59865">
        <ele>417</ele>
        <time>2019-09-04T20:56:46Z</time>
      </trkpt>
      <trkpt lat="43.85013" lon="5.59854">
        <ele>420</ele>
        <time>2019-09-04T20:56:50Z</time>
      </trkpt>
      <trkpt lat="43.85008" lon="5.59842">
        <ele>424</ele>
        <time>2019-09-04T20:56:52Z</time>
      </trkpt>
      <trkpt lat="43.84991" lon="5.59771">
        <ele>439</ele>
        <time>2019-09-04T20:57:05Z</time>
      </trkpt>
      <trkpt lat="43.84988" lon="5.59743">
        <ele>444</ele>
        <time>2019-09-04T20:57:10Z</time>
      </trkpt>
      <trkpt lat="43.84983" lon="5.5973">
        <ele>446</ele>
        <time>2019-09-04T20:57:12Z</time>
      </trkpt>
      <trkpt lat="43.84995" lon="5.59711">
        <ele>452</ele>
        <time>2019-09-04T20:57:16Z</time>
      </trkpt>
      <trkpt lat="43.84997" lon="5.597">
        <ele>455</ele>
        <time>2019-09-04T20:57:18Z</time>
      </trkpt>
      <trkpt lat="43.8499" lon="5.59668">
        <ele>461</ele>
        <time>2019-09-04T20:57:24Z</time>
      </trkpt>
      <trkpt lat="43.84977" lon="5.59647">
        <ele>462</ele>
        <time>2019-09-04T20:57:29Z</time>
      </trkpt>
      <trkpt lat="43.84972" lon="5.59628">
        <ele>465</ele>
        <time>2019-09-04T20:57:32Z</time>
      </trkpt>
      <trkpt lat="43.84971" lon="5.59601">
        <ele>470</ele>
        <time>2019-09-04T20:57:37Z</time>
      </trkpt>
      <trkpt lat="43.84967" lon="5.59586">
        <ele>473</ele>
        <time>2019-09-04T20:57:39Z</time>
      </trkpt>
      <trkpt lat="43.84969" lon="5.59565">
        <ele>477</ele>
        <time>2019-09-04T20:57:43Z</time>
      </trkpt>
      <trkpt lat="43.84954" lon="5.59458">
        <ele>492</ele>
        <time>2019-09-04T20:58:01Z</time>
      </trkpt>
      <trkpt lat="43.84956" lon="5.59437">
        <ele>495</ele>
        <time>2019-09-04T20:58:05Z</time>
      </trkpt>
      <trkpt lat="43.84949" lon="5.59349">
        <ele>506</ele>
        <time>2019-09-04T20:58:20Z</time>
      </trkpt>
      <trkpt lat="43.8495" lon="5.59338">
        <ele>508</ele>
        <time>2019-09-04T20:58:22Z</time>
      </trkpt>
      <trkpt lat="43.84957" lon="5.59327">
        <ele>510</ele>
        <time>2019-09-04T20:58:24Z</time>
      </trkpt>
      <trkpt lat="43.84955" lon="5.59293">
        <ele>512</ele>
        <time>2019-09-04T20:58:30Z</time>
      </trkpt>
      <trkpt lat="43.84958" lon="5.59282">
        <ele>513</ele>
        <time>2019-09-04T20:58:32Z</time>
      </trkpt>
      <trkpt lat="43.84956" lon="5.59213">
        <ele>516</ele>
        <time>2019-09-04T20:58:43Z</time>
      </trkpt>
      <trkpt lat="43.84958" lon="5.59138">
        <ele>518</ele>
        <time>2019-09-04T20:58:56Z</time>
      </trkpt>
      <trkpt lat="43.84969" lon="5.59086">
        <ele>520</ele>
        <time>2019-09-04T20:59:05Z</time>
      </trkpt>
      <trkpt lat="43.84971" lon="5.59037">
        <ele>522</ele>
        <time>2019-09-04T20:59:13Z</time>
      </trkpt>
      <trkpt lat="43.84981" lon="5.59004">
        <ele>526</ele>
        <time>2019-09-04T20:59:19Z</time>
      </trkpt>
      <trkpt lat="43.84986" lon="5.58963">
        <ele>526</ele>
        <time>2019-09-04T20:59:26Z</time>
      </trkpt>
      <trkpt lat="43.85006" lon="5.58889">
        <ele>527</ele>
        <time>2019-09-04T20:59:40Z</time>
      </trkpt>
      <trkpt lat="43.85019" lon="5.58845">
        <ele>522</ele>
        <time>2019-09-04T20:59:48Z</time>
      </trkpt>
      <trkpt lat="43.85052" lon="5.58751">
        <ele>508</ele>
        <time>2019-09-04T21:00:05Z</time>
      </trkpt>
      <trkpt lat="43.85053" lon="5.58736">
        <ele>505</ele>
        <time>2019-09-04T21:00:08Z</time>
      </trkpt>
      <trkpt lat="43.85048" lon="5.58713">
        <ele>501</ele>
        <time>2019-09-04T21:00:12Z</time>
      </trkpt>
      <trkpt lat="43.85043" lon="5.58702">
        <ele>499</ele>
        <time>2019-09-04T21:00:14Z</time>
      </trkpt>
      <trkpt lat="43.85025" lon="5.58677">
        <ele>495</ele>
        <time>2019-09-04T21:00:20Z</time>
      </trkpt>
      <trkpt lat="43.85015" lon="5.58655">
        <ele>491</ele>
        <time>2019-09-04T21:00:25Z</time>
      </trkpt>
      <trkpt lat="43.85019" lon="5.58642">
        <ele>490</ele>
        <time>2019-09-04T21:00:27Z</time>
      </trkpt>
      <trkpt lat="43.85029" lon="5.58644">
        <ele>490</ele>
        <time>2019-09-04T21:00:29Z</time>
      </trkpt>
      <trkpt lat="43.85064" lon="5.58666">
        <ele>493</ele>
        <time>2019-09-04T21:00:38Z</time>
      </trkpt>
      <trkpt lat="43.85097" lon="5.58681">
        <ele>494</ele>
        <time>2019-09-04T21:00:46Z</time>
      </trkpt>
      <trkpt lat="43.85105" lon="5.58682">
        <ele>493</ele>
        <time>2019-09-04T21:00:48Z</time>
      </trkpt>
      <trkpt lat="43.85145" lon="5.58667">
        <ele>486</ele>
        <time>2019-09-04T21:00:58Z</time>
      </trkpt>
      <trkpt lat="43.85175" lon="5.58648">
        <ele>480</ele>
        <time>2019-09-04T21:01:06Z</time>
      </trkpt>
      <trkpt lat="43.85185" lon="5.58644">
        <ele>478</ele>
        <time>2019-09-04T21:01:08Z</time>
      </trkpt>
      <trkpt lat="43.85209" lon="5.58604">
        <ele>473</ele>
        <time>2019-09-04T21:01:17Z</time>
      </trkpt>
      <trkpt lat="43.85222" lon="5.58589">
        <ele>471</ele>
        <time>2019-09-04T21:01:21Z</time>
      </trkpt>
      <trkpt lat="43.85231" lon="5.58585">
        <ele>470</ele>
        <time>2019-09-04T21:01:23Z</time>
      </trkpt>
      <trkpt lat="43.85239" lon="5.58585">
        <ele>469</ele>
        <time>2019-09-04T21:01:25Z</time>
      </trkpt>
      <trkpt lat="43.85245" lon="5.58592">
        <ele>469</ele>
        <time>2019-09-04T21:01:27Z</time>
      </trkpt>
      <trkpt lat="43.85251" lon="5.58616">
        <ele>469</ele>
        <time>2019-09-04T21:01:31Z</time>
      </trkpt>
      <trkpt lat="43.85264" lon="5.58612">
        <ele>465</ele>
        <time>2019-09-04T21:01:34Z</time>
      </trkpt>
      <trkpt lat="43.8527" lon="5.58635">
        <ele>463</ele>
        <time>2019-09-04T21:01:38Z</time>
      </trkpt>
      <trkpt lat="43.85277" lon="5.58639">
        <ele>461</ele>
        <time>2019-09-04T21:01:40Z</time>
      </trkpt>
      <trkpt lat="43.8529" lon="5.5864">
        <ele>458</ele>
        <time>2019-09-04T21:01:43Z</time>
      </trkpt>
      <trkpt lat="43.85297" lon="5.58649">
        <ele>456</ele>
        <time>2019-09-04T21:01:45Z</time>
      </trkpt>
      <trkpt lat="43.85311" lon="5.58628">
        <ele>452</ele>
        <time>2019-09-04T21:01:50Z</time>
      </trkpt>
      <trkpt lat="43.85365" lon="5.58586">
        <ele>440</ele>
        <time>2019-09-04T21:02:04Z</time>
      </trkpt>
      <trkpt lat="43.854" lon="5.58546">
        <ele>433</ele>
        <time>2019-09-04T21:02:15Z</time>
      </trkpt>
      <trkpt lat="43.8541" lon="5.5854">
        <ele>431</ele>
        <time>2019-09-04T21:02:18Z</time>
      </trkpt>
      <trkpt lat="43.85419" lon="5.58541">
        <ele>429</ele>
        <time>2019-09-04T21:02:20Z</time>
      </trkpt>
      <trkpt lat="43.85444" lon="5.58553">
        <ele>425</ele>
        <time>2019-09-04T21:02:26Z</time>
      </trkpt>
      <trkpt lat="43.85458" lon="5.5855">
        <ele>423</ele>
        <time>2019-09-04T21:02:29Z</time>
      </trkpt>
      <trkpt lat="43.8546" lon="5.58576">
        <ele>422</ele>
        <time>2019-09-04T21:02:34Z</time>
      </trkpt>
      <trkpt lat="43.85484" lon="5.58586">
        <ele>417</ele>
        <time>2019-09-04T21:02:39Z</time>
      </trkpt>
      <trkpt lat="43.85536" lon="5.58619">
        <ele>411</ele>
        <time>2019-09-04T21:02:53Z</time>
      </trkpt>
      <trkpt lat="43.856" lon="5.58664">
        <ele>405</ele>
        <time>2019-09-04T21:03:10Z</time>
      </trkpt>
      <trkpt lat="43.85615" lon="5.58677">
        <ele>404</ele>
        <time>2019-09-04T21:03:14Z</time>
      </trkpt>
      <trkpt lat="43.85649" lon="5.586">
        <ele>406</ele>
        <time>2019-09-04T21:03:29Z</time>
      </trkpt>
      <trkpt lat="43.85666" lon="5.58549">
        <ele>407</ele>
        <time>2019-09-04T21:03:38Z</time>
      </trkpt>
      <trkpt lat="43.85667" lon="5.58519">
        <ele>408</ele>
        <time>2019-09-04T21:03:43Z</time>
      </trkpt>
      <trkpt lat="43.8565" lon="5.58418">
        <ele>413</ele>
        <time>2019-09-04T21:04:01Z</time>
      </trkpt>
    </trkseg>
  </trk>
</gpx>